Wetterdaten: Samstag, 25.09.2021
Datum Zeit Temp. Aussen Temp. o. S. Temp +5cm Feuchte Auss Luftdruck Regen Sonnenschein Regendauer Solar Windben Empfang
25.09.2021 00:00 15,9 C 15,0 C 13,4 C 90 % 1016,4 hPa 0,0 l/m 0 min 0 min 0 W/m 12,9 km/h (3 Bft) 95,74 %
25.09.2021 00:02 15,9 C 15,0 C 13,4 C 89 % 1016,4 hPa 0,0 l/m 0 min 0 min 0 W/m 6,4 km/h (2 Bft) 97,44 %
25.09.2021 00:04 15,9 C 15,0 C 13,4 C 90 % 1016,4 hPa 0,0 l/m 0 min 0 min 0 W/m 9,7 km/h (2 Bft) 97,87 %
25.09.2021 00:08 15,8 C 15,0 C 13,9 C 90 % 1016,4 hPa 0,0 l/m 0 min 0 min 0 W/m 12,9 km/h (3 Bft) 97,89 %
25.09.2021 00:10 15,8 C 15,0 C 13,9 C 90 % 1016,3 hPa 0,0 l/m 0 min 0 min 0 W/m 12,9 km/h (3 Bft) 97,87 %
25.09.2021 00:12 15,8 C 15,0 C 13,9 C 90 % 1016,3 hPa 0,0 l/m 0 min 0 min 0 W/m 9,7 km/h (2 Bft) 97,87 %
25.09.2021 00:14 15,8 C 15,0 C 13,9 C 90 % 1016,3 hPa 0,0 l/m 0 min 0 min 0 W/m 6,4 km/h (2 Bft) 95,74 %
25.09.2021 00:16 15,8 C 15,0 C 13,9 C 90 % 1016,3 hPa 0,0 l/m 0 min 0 min 0 W/m 12,9 km/h (3 Bft) 97,87 %
25.09.2021 00:18 15,8 C 15,0 C 13,4 C 90 % 1016,3 hPa 0,0 l/m 0 min 0 min 0 W/m 6,4 km/h (2 Bft) 97,87 %
25.09.2021 00:20 15,8 C 15,0 C 13,4 C 90 % 1016,3 hPa 0,0 l/m 0 min 0 min 0 W/m 6,4 km/h (2 Bft) 97,83 %
25.09.2021 00:22 15,7 C 15,0 C 13,4 C 90 % 1016,3 hPa 0,0 l/m 0 min 0 min 0 W/m 6,4 km/h (2 Bft) 100,00 %
25.09.2021 00:24 15,7 C 15,0 C 13,4 C 90 % 1016,3 hPa 0,0 l/m 0 min 0 min 0 W/m 6,4 km/h (2 Bft) 100,00 %
25.09.2021 00:26 15,6 C 15,0 C 13,4 C 90 % 1016,3 hPa 0,0 l/m 0 min 0 min 0 W/m 6,4 km/h (2 Bft) 100,00 %
25.09.2021 00:28 15,6 C 14,4 C 13,4 C 90 % 1016,3 hPa 0,0 l/m 0 min 0 min 0 W/m 3,2 km/h (1 Bft) 100,00 %
25.09.2021 00:30 15,6 C 14,4 C 13,4 C 90 % 1016,3 hPa 0,0 l/m 0 min 0 min 0 W/m 6,4 km/h (2 Bft) 100,00 %
25.09.2021 00:32 15,6 C 14,4 C 13,4 C 90 % 1016,3 hPa 0,0 l/m 0 min 0 min 0 W/m 6,4 km/h (2 Bft) 100,00 %
25.09.2021 00:34 15,6 C 14,4 C 13,4 C 90 % 1016,3 hPa 0,0 l/m 0 min 0 min 0 W/m 3,2 km/h (1 Bft) 100,00 %
25.09.2021 00:36 15,6 C 14,4 C 13,4 C 90 % 1016,3 hPa 0,0 l/m 0 min 0 min 0 W/m 6,4 km/h (2 Bft) 100,00 %
25.09.2021 00:38 15,5 C 14,4 C 13,4 C 90 % 1016,3 hPa 0,0 l/m 0 min 0 min 0 W/m 6,4 km/h (2 Bft) 100,00 %
25.09.2021 00:40 15,5 C 14,4 C 13,4 C 90 % 1016,3 hPa 0,0 l/m 0 min 0 min 0 W/m 3,2 km/h (1 Bft) 100,00 %
25.09.2021 00:42 15,5 C 14,4 C 13,4 C 90 % 1016,3 hPa 0,0 l/m 0 min 0 min 0 W/m 3,2 km/h (1 Bft) 100,00 %
25.09.2021 00:44 15,5 C 14,4 C 13,4 C 90 % 1016,3 hPa 0,0 l/m 0 min 0 min 0 W/m 3,2 km/h (1 Bft) 100,00 %
25.09.2021 00:46 15,5 C 14,4 C 13,4 C 90 % 1016,3 hPa 0,0 l/m 0 min 0 min 0 W/m 3,2 km/h (1 Bft) 97,87 %
25.09.2021 00:48 15,5 C 14,4 C 13,4 C 90 % 1016,4 hPa 0,0 l/m 0 min 0 min 0 W/m 3,2 km/h (1 Bft) 97,87 %
25.09.2021 00:50 15,4 C 14,4 C 13,4 C 90 % 1016,4 hPa 0,0 l/m 0 min 0 min 0 W/m 6,4 km/h (2 Bft) 100,00 %
25.09.2021 00:52 15,4 C 14,4 C 13,4 C 90 % 1016,4 hPa 0,0 l/m 0 min 0 min 0 W/m 3,2 km/h (1 Bft) 100,00 %
25.09.2021 00:54 15,4 C 14,4 C 13,4 C 90 % 1016,4 hPa 0,0 l/m 0 min 0 min 0 W/m 6,4 km/h (2 Bft) 97,83 %
25.09.2021 00:56 15,4 C 14,4 C 13,4 C 90 % 1016,4 hPa 0,0 l/m 0 min 0 min 0 W/m 3,2 km/h (1 Bft) 97,87 %
25.09.2021 00:58 15,4 C 14,4 C 13,4 C 90 % 1016,4 hPa 0,0 l/m 0 min 0 min 0 W/m 3,2 km/h (1 Bft) 97,87 %
25.09.2021 01:00 15,3 C 14,4 C 13,4 C 90 % 1016,4 hPa 0,0 l/m 0 min 0 min 0 W/m 6,4 km/h (2 Bft) 97,87 %
25.09.2021 01:02 15,3 C 14,4 C 13,4 C 90 % 1016,4 hPa 0,0 l/m 0 min 0 min 0 W/m 3,2 km/h (1 Bft) 95,74 %
25.09.2021 01:04 15,3 C 14,4 C 13,4 C 91 % 1016,4 hPa 0,0 l/m 0 min 0 min 0 W/m 3,2 km/h (1 Bft) 97,87 %
25.09.2021 01:06 15,3 C 14,4 C 13,4 C 91 % 1016,4 hPa 0,0 l/m 0 min 0 min 0 W/m 3,2 km/h (1 Bft) 97,83 %
25.09.2021 01:08 15,3 C 14,4 C 13,4 C 91 % 1016,4 hPa 0,0 l/m 0 min 0 min 0 W/m 6,4 km/h (2 Bft) 97,87 %
25.09.2021 01:10 15,2 C 14,4 C 13,4 C 91 % 1016,4 hPa 0,0 l/m 0 min 0 min 0 W/m 3,2 km/h (1 Bft) 97,87 %
25.09.2021 01:12 15,2 C 14,4 C 13,4 C 91 % 1016,4 hPa 0,0 l/m 0 min 0 min 0 W/m 3,2 km/h (1 Bft) 95,74 %
25.09.2021 01:14 15,2 C 14,4 C 13,4 C 91 % 1016,4 hPa 0,0 l/m 0 min 0 min 0 W/m 6,4 km/h (2 Bft) 97,87 %
25.09.2021 01:16 15,1 C 14,4 C 13,4 C 91 % 1016,4 hPa 0,0 l/m 0 min 0 min 0 W/m 6,4 km/h (2 Bft) 97,87 %
25.09.2021 01:18 15,1 C 14,4 C 13,4 C 91 % 1016,4 hPa 0,0 l/m 0 min 0 min 0 W/m 3,2 km/h (1 Bft) 97,83 %
25.09.2021 01:20 15,1 C 14,4 C 12,8 C 91 % 1016,4 hPa 0,0 l/m 0 min 0 min 0 W/m 3,2 km/h (1 Bft) 97,87 %
25.09.2021 01:22 15,1 C 14,4 C 13,4 C 91 % 1016,4 hPa 0,0 l/m 0 min 0 min 0 W/m 6,4 km/h (2 Bft) 95,74 %
25.09.2021 01:24 15,1 C 14,4 C 13,4 C 91 % 1016,3 hPa 0,0 l/m 0 min 0 min 0 W/m 6,4 km/h (2 Bft) 100,00 %
25.09.2021 01:26 15,0 C 14,4 C 12,8 C 91 % 1016,4 hPa 0,0 l/m 0 min 0 min 0 W/m 12,9 km/h (3 Bft) 100,00 %
25.09.2021 01:28 15,0 C 14,4 C 13,4 C 91 % 1016,4 hPa 0,0 l/m 0 min 0 min 0 W/m 6,4 km/h (2 Bft) 100,00 %
25.09.2021 01:30 15,0 C 14,4 C 13,4 C 91 % 1016,4 hPa 0,0 l/m 0 min 0 min 0 W/m 3,2 km/h (1 Bft) 100,00 %
25.09.2021 01:32 15,0 C 13,9 C 12,8 C 91 % 1016,4 hPa 0,0 l/m 0 min 0 min 0 W/m 3,2 km/h (1 Bft) 97,92 %
25.09.2021 01:34 15,0 C 13,9 C 12,8 C 91 % 1016,4 hPa 0,0 l/m 0 min 0 min 0 W/m 3,2 km/h (1 Bft) 97,87 %
25.09.2021 01:36 15,0 C 14,4 C 12,8 C 91 % 1016,5 hPa 0,0 l/m 0 min 0 min 0 W/m 6,4 km/h (2 Bft) 95,74 %
25.09.2021 01:38 15,0 C 14,4 C 13,4 C 91 % 1016,5 hPa 0,0 l/m 0 min 0 min 0 W/m 6,4 km/h (2 Bft) 97,87 %
25.09.2021 01:40 15,0 C 14,4 C 12,8 C 91 % 1016,5 hPa 0,0 l/m 0 min 0 min 0 W/m 3,2 km/h (1 Bft) 95,74 %
25.09.2021 01:42 15,0 C 13,9 C 12,8 C 91 % 1016,5 hPa 0,0 l/m 0 min 0 min 0 W/m 3,2 km/h (1 Bft) 97,83 %
25.09.2021 01:44 15,0 C 13,9 C 12,8 C 91 % 1016,5 hPa 0,0 l/m 0 min 0 min 0 W/m 3,2 km/h (1 Bft) 97,87 %
25.09.2021 01:46 15,0 C 13,9 C 12,8 C 91 % 1016,4 hPa 0,0 l/m 0 min 0 min 0 W/m 3,2 km/h (1 Bft) 97,87 %
25.09.2021 01:48 14,9 C 13,9 C 12,8 C 91 % 1016,4 hPa 0,0 l/m 0 min 0 min 0 W/m 3,2 km/h (1 Bft) 97,87 %
25.09.2021 01:50 14,9 C 13,9 C 12,8 C 91 % 1016,5 hPa 0,0 l/m 0 min 0 min 0 W/m 12,9 km/h (3 Bft) 97,87 %
25.09.2021 01:52 14,9 C 13,9 C 12,8 C 91 % 1016,5 hPa 0,0 l/m 0 min 0 min 0 W/m 9,7 km/h (2 Bft) 97,83 %
25.09.2021 01:54 14,9 C 13,9 C 12,8 C 91 % 1016,6 hPa 0,0 l/m 0 min 0 min 0 W/m 3,2 km/h (1 Bft) 95,74 %
25.09.2021 01:56 14,9 C 13,9 C 12,8 C 92 % 1016,6 hPa 0,0 l/m 0 min 0 min 0 W/m 3,2 km/h (1 Bft) 97,87 %
25.09.2021 01:58 14,9 C 13,9 C 12,8 C 91 % 1016,5 hPa 0,0 l/m 0 min 0 min 0 W/m 6,4 km/h (2 Bft) 95,74 %
25.09.2021 02:00 14,9 C 13,9 C 12,8 C 91 % 1016,5 hPa 0,0 l/m 0 min 0 min 0 W/m 6,4 km/h (2 Bft) 95,74 %
25.09.2021 02:02 14,9 C 13,9 C 12,8 C 91 % 1016,5 hPa 0,0 l/m 0 min 0 min 0 W/m 6,4 km/h (2 Bft) 97,92 %
25.09.2021 02:04 14,9 C 13,9 C 12,8 C 91 % 1016,5 hPa 0,0 l/m 0 min 0 min 0 W/m 3,2 km/h (1 Bft) 97,83 %
25.09.2021 02:06 14,9 C 13,9 C 12,8 C 91 % 1016,5 hPa 0,0 l/m 0 min 0 min 0 W/m 0,0 km/h (0 Bft) 97,87 %
25.09.2021 02:08 14,8 C 13,9 C 12,8 C 91 % 1016,4 hPa 0,0 l/m 0 min 0 min 0 W/m 3,2 km/h (1 Bft) 95,74 %
25.09.2021 02:10 14,8 C 13,9 C 12,8 C 91 % 1016,4 hPa 0,0 l/m 0 min 0 min 0 W/m 3,2 km/h (1 Bft) 95,74 %
25.09.2021 02:12 14,8 C 13,9 C 12,8 C 91 % 1016,5 hPa 0,0 l/m 0 min 0 min 0 W/m 3,2 km/h (1 Bft) 95,74 %
25.09.2021 02:14 14,8 C 13,9 C 12,8 C 91 % 1016,5 hPa 0,0 l/m 0 min 0 min 0 W/m 0,0 km/h (0 Bft) 95,74 %
25.09.2021 02:16 14,8 C 13,9 C 12,8 C 92 % 1016,5 hPa 0,0 l/m 0 min 0 min 0 W/m 0,0 km/h (0 Bft) 97,83 %
25.09.2021 02:18 14,7 C 13,9 C 12,8 C 92 % 1016,5 hPa 0,0 l/m 0 min 0 min 0 W/m 0,0 km/h (0 Bft) 95,74 %
25.09.2021 02:20 14,7 C 13,3 C 12,3 C 92 % 1016,4 hPa 0,0 l/m 0 min 0 min 0 W/m 3,2 km/h (1 Bft) 95,74 %
25.09.2021 02:22 14,6 C 13,3 C 12,3 C 92 % 1016,5 hPa 0,0 l/m 0 min 0 min 0 W/m 3,2 km/h (1 Bft) 95,74 %
25.09.2021 02:24 14,6 C 13,3 C 12,3 C 92 % 1016,4 hPa 0,0 l/m 0 min 0 min 0 W/m 3,2 km/h (1 Bft) 97,87 %
25.09.2021 02:26 14,6 C 13,3 C 12,3 C 92 % 1016,4 hPa 0,0 l/m 0 min 0 min 0 W/m 3,2 km/h (1 Bft) 95,74 %
25.09.2021 02:28 14,6 C 13,3 C 12,3 C 92 % 1016,4 hPa 0,0 l/m 0 min 0 min 0 W/m 3,2 km/h (1 Bft) 97,83 %
25.09.2021 02:30 14,5 C 13,3 C 12,3 C 92 % 1016,4 hPa 0,0 l/m 0 min 0 min 0 W/m 3,2 km/h (1 Bft) 95,74 %
25.09.2021 02:32 14,5 C 13,3 C 12,3 C 92 % 1016,4 hPa 0,0 l/m 0 min 0 min 0 W/m 3,2 km/h (1 Bft) 95,83 %
25.09.2021 02:34 14,5 C 13,3 C 12,3 C 92 % 1016,4 hPa 0,0 l/m 0 min 0 min 0 W/m 3,2 km/h (1 Bft) 93,62 %
25.09.2021 02:36 14,5 C 13,3 C 12,3 C 92 % 1016,3 hPa 0,0 l/m 0 min 0 min 0 W/m 3,2 km/h (1 Bft) 95,74 %
25.09.2021 02:38 14,5 C 13,3 C 12,3 C 92 % 1016,3 hPa 0,0 l/m 0 min 0 min 0 W/m 6,4 km/h (2 Bft) 95,74 %
25.09.2021 02:40 14,5 C 13,3 C 12,3 C 92 % 1016,4 hPa 0,0 l/m 0 min 0 min 0 W/m 0,0 km/h (0 Bft) 97,83 %
25.09.2021 02:42 14,5 C 13,3 C 12,3 C 92 % 1016,4 hPa 0,0 l/m 0 min 0 min 0 W/m 3,2 km/h (1 Bft) 95,74 %
25.09.2021 02:44 14,4 C 13,3 C 12,3 C 92 % 1016,4 hPa 0,0 l/m 0 min 0 min 0 W/m 3,2 km/h (1 Bft) 93,62 %
25.09.2021 02:46 14,4 C 13,3 C 12,3 C 92 % 1016,4 hPa 0,0 l/m 0 min 0 min 0 W/m 3,2 km/h (1 Bft) 95,74 %
25.09.2021 02:48 14,4 C 13,3 C 12,3 C 92 % 1016,4 hPa 0,0 l/m 0 min 0 min 0 W/m 6,4 km/h (2 Bft) 93,62 %
25.09.2021 02:50 14,4 C 13,3 C 12,3 C 92 % 1016,4 hPa 0,0 l/m 0 min 0 min 0 W/m 12,9 km/h (3 Bft) 95,74 %
25.09.2021 02:52 14,4 C 13,3 C 12,8 C 92 % 1016,4 hPa 0,0 l/m 0 min 0 min 0 W/m 6,4 km/h (2 Bft) 95,65 %
25.09.2021 02:54 14,3 C 13,3 C 12,8 C 92 % 1016,4 hPa 0,0 l/m 0 min 0 min 0 W/m 6,4 km/h (2 Bft) 95,74 %
25.09.2021 02:56 14,3 C 13,3 C 12,8 C 92 % 1016,4 hPa 0,0 l/m 0 min 0 min 0 W/m 6,4 km/h (2 Bft) 97,87 %
25.09.2021 02:58 14,3 C 13,3 C 12,8 C 92 % 1016,4 hPa 0,0 l/m 0 min 0 min 0 W/m 3,2 km/h (1 Bft) 97,87 %
25.09.2021 03:00 14,3 C 13,3 C 12,8 C 92 % 1016,4 hPa 0,0 l/m 0 min 0 min 0 W/m 6,4 km/h (2 Bft) 97,87 %
25.09.2021 03:02 14,3 C 13,3 C 12,8 C 92 % 1016,4 hPa 0,0 l/m 0 min 0 min 0 W/m 6,4 km/h (2 Bft) 97,87 %
25.09.2021 03:04 14,3 C 13,3 C 12,8 C 92 % 1016,4 hPa 0,0 l/m 0 min 0 min 0 W/m 3,2 km/h (1 Bft) 97,87 %
25.09.2021 03:06 14,2 C 13,3 C 12,8 C 92 % 1016,4 hPa 0,0 l/m 0 min 0 min 0 W/m 3,2 km/h (1 Bft) 97,87 %
25.09.2021 03:08 14,2 C 13,3 C 12,8 C 92 % 1016,4 hPa 0,0 l/m 0 min 0 min 0 W/m 6,4 km/h (2 Bft) 97,87 %
25.09.2021 03:10 14,2 C 13,3 C 12,8 C 92 % 1016,4 hPa 0,0 l/m 0 min 0 min 0 W/m 3,2 km/h (1 Bft) 97,87 %
25.09.2021 03:12 14,2 C 13,3 C 12,8 C 92 % 1016,4 hPa 0,0 l/m 0 min 0 min 0 W/m 3,2 km/h (1 Bft) 97,83 %
25.09.2021 03:14 14,2 C 13,3 C 12,8 C 92 % 1016,4 hPa 0,0 l/m 0 min 0 min 0 W/m 3,2 km/h (1 Bft) 100,00 %
25.09.2021 03:16 14,2 C 13,3 C 12,8 C 92 % 1016,4 hPa 0,0 l/m 0 min 0 min 0 W/m 3,2 km/h (1 Bft) 100,00 %
25.09.2021 03:18 14,2 C 13,3 C 12,3 C 92 % 1016,4 hPa 0,0 l/m 0 min 0 min 0 W/m 3,2 km/h (1 Bft) 100,00 %
25.09.2021 03:20 14,2 C 13,3 C 12,3 C 92 % 1016,4 hPa 0,0 l/m 0 min 0 min 0 W/m 3,2 km/h (1 Bft) 97,87 %
25.09.2021 03:22 14,2 C 13,3 C 12,3 C 92 % 1016,4 hPa 0,0 l/m 0 min 0 min 0 W/m 6,4 km/h (2 Bft) 97,87 %
25.09.2021 03:24 14,2 C 13,3 C 12,3 C 92 % 1016,5 hPa 0,0 l/m 0 min 0 min 0 W/m 3,2 km/h (1 Bft) 100,00 %
25.09.2021 03:26 14,2 C 13,3 C 12,3 C 92 % 1016,4 hPa 0,0 l/m 0 min 0 min 0 W/m 3,2 km/h (1 Bft) 97,87 %
25.09.2021 03:28 14,2 C 12,8 C 12,3 C 92 % 1016,5 hPa 0,0 l/m 0 min 0 min 0 W/m 3,2 km/h (1 Bft) 100,00 %
25.09.2021 03:30 14,2 C 12,8 C 12,3 C 92 % 1016,5 hPa 0,0 l/m 0 min 0 min 0 W/m 3,2 km/h (1 Bft) 100,00 %
25.09.2021 03:32 14,1 C 12,8 C 12,3 C 92 % 1016,5 hPa 0,0 l/m 0 min 0 min 0 W/m 3,2 km/h (1 Bft) 100,00 %
25.09.2021 03:34 14,1 C 12,8 C 12,3 C 92 % 1016,5 hPa 0,0 l/m 0 min 0 min 0 W/m 6,4 km/h (2 Bft) 100,00 %
25.09.2021 03:36 14,0 C 12,8 C 12,3 C 93 % 1016,5 hPa 0,0 l/m 0 min 0 min 0 W/m 3,2 km/h (1 Bft) 100,00 %
25.09.2021 03:38 14,0 C 12,8 C 12,3 C 93 % 1016,5 hPa 0,0 l/m 0 min 0 min 0 W/m 3,2 km/h (1 Bft) 100,00 %
25.09.2021 03:40 14,0 C 12,8 C 12,3 C 93 % 1016,5 hPa 0,0 l/m 0 min 0 min 0 W/m 3,2 km/h (1 Bft) 100,00 %
25.09.2021 03:42 13,9 C 12,8 C 12,3 C 93 % 1016,5 hPa 0,0 l/m 0 min 0 min 0 W/m 3,2 km/h (1 Bft) 97,87 %
25.09.2021 03:44 13,9 C 12,8 C 12,3 C 93 % 1016,4 hPa 0,0 l/m 0 min 0 min 0 W/m 6,4 km/h (2 Bft) 95,74 %
25.09.2021 03:46 13,9 C 12,8 C 12,3 C 93 % 1016,5 hPa 0,0 l/m 0 min 0 min 0 W/m 3,2 km/h (1 Bft) 100,00 %
25.09.2021 03:48 13,9 C 12,8 C 12,3 C 93 % 1016,5 hPa 0,0 l/m 0 min 0 min 0 W/m 3,2 km/h (1 Bft) 100,00 %
25.09.2021 03:50 13,8 C 12,8 C 12,3 C 93 % 1016,5 hPa 0,0 l/m 0 min 0 min 0 W/m 3,2 km/h (1 Bft) 100,00 %
25.09.2021 03:52 13,8 C 12,8 C 12,3 C 93 % 1016,5 hPa 0,0 l/m 0 min 0 min 0 W/m 3,2 km/h (1 Bft) 100,00 %
25.09.2021 03:54 13,8 C 12,8 C 12,3 C 93 % 1016,5 hPa 0,0 l/m 0 min 0 min 0 W/m 6,4 km/h (2 Bft) 97,87 %
25.09.2021 03:56 13,8 C 12,8 C 12,3 C 93 % 1016,5 hPa 0,0 l/m 0 min 0 min 0 W/m 0,0 km/h (0 Bft) 100,00 %
25.09.2021 03:58 13,8 C 12,8 C 12,3 C 93 % 1016,5 hPa 0,0 l/m 0 min 0 min 0 W/m 3,2 km/h (1 Bft) 97,87 %
25.09.2021 04:00 13,8 C 12,8 C 12,3 C 93 % 1016,4 hPa 0,0 l/m 0 min 0 min 0 W/m 3,2 km/h (1 Bft) 100,00 %
25.09.2021 04:02 13,7 C 12,8 C 12,3 C 93 % 1016,4 hPa 0,0 l/m 0 min 0 min 0 W/m 0,0 km/h (0 Bft) 100,00 %
25.09.2021 04:04 13,7 C 12,8 C 12,3 C 93 % 1016,4 hPa 0,0 l/m 0 min 0 min 0 W/m 6,4 km/h (2 Bft) 100,00 %
25.09.2021 04:06 13,6 C 12,8 C 12,3 C 93 % 1016,4 hPa 0,0 l/m 0 min 0 min 0 W/m 3,2 km/h (1 Bft) 100,00 %
25.09.2021 04:08 13,6 C 12,8 C 11,7 C 93 % 1016,4 hPa 0,0 l/m 0 min 0 min 0 W/m 6,4 km/h (2 Bft) 100,00 %
25.09.2021 04:10 13,6 C 12,8 C 11,7 C 93 % 1016,4 hPa 0,0 l/m 0 min 0 min 0 W/m 3,2 km/h (1 Bft) 100,00 %
25.09.2021 04:12 13,6 C 12,2 C 11,7 C 93 % 1016,5 hPa 0,0 l/m 0 min 0 min 0 W/m 3,2 km/h (1 Bft) 100,00 %
25.09.2021 04:14 13,6 C 12,2 C 11,7 C 93 % 1016,5 hPa 0,0 l/m 0 min 0 min 0 W/m 3,2 km/h (1 Bft) 97,87 %
25.09.2021 04:16 13,5 C 12,2 C 11,7 C 93 % 1016,5 hPa 0,0 l/m 0 min 0 min 0 W/m 3,2 km/h (1 Bft) 97,87 %
25.09.2021 04:18 13,5 C 12,2 C 11,7 C 93 % 1016,5 hPa 0,0 l/m 0 min 0 min 0 W/m 3,2 km/h (1 Bft) 100,00 %
25.09.2021 04:20 13,5 C 12,8 C 11,7 C 93 % 1016,5 hPa 0,0 l/m 0 min 0 min 0 W/m 3,2 km/h (1 Bft) 100,00 %
25.09.2021 04:22 13,5 C 12,8 C 12,3 C 93 % 1016,5 hPa 0,0 l/m 0 min 0 min 0 W/m 3,2 km/h (1 Bft) 97,83 %
25.09.2021 04:24 13,5 C 12,8 C 12,3 C 93 % 1016,5 hPa 0,0 l/m 0 min 0 min 0 W/m 3,2 km/h (1 Bft) 100,00 %
25.09.2021 04:26 13,5 C 12,8 C 12,3 C 93 % 1016,5 hPa 0,0 l/m 0 min 0 min 0 W/m 6,4 km/h (2 Bft) 95,74 %
25.09.2021 04:28 13,5 C 12,8 C 12,3 C 93 % 1016,5 hPa 0,0 l/m 0 min 0 min 0 W/m 3,2 km/h (1 Bft) 100,00 %
25.09.2021 04:30 13,5 C 12,8 C 12,3 C 93 % 1016,5 hPa 0,0 l/m 0 min 0 min 0 W/m 3,2 km/h (1 Bft) 93,62 %
25.09.2021 04:32 13,5 C 12,8 C 12,3 C 94 % 1016,5 hPa 0,0 l/m 0 min 0 min 0 W/m 3,2 km/h (1 Bft) 95,74 %
25.09.2021 04:34 13,5 C 12,8 C 12,3 C 94 % 1016,5 hPa 0,0 l/m 0 min 0 min 0 W/m 3,2 km/h (1 Bft) 95,74 %
25.09.2021 04:36 13,5 C 12,8 C 12,3 C 94 % 1016,5 hPa 0,0 l/m 0 min 0 min 0 W/m 9,7 km/h (2 Bft) 91,30 %
25.09.2021 04:38 13,5 C 12,8 C 12,3 C 94 % 1016,5 hPa 0,0 l/m 0 min 0 min 0 W/m 6,4 km/h (2 Bft) 95,74 %
25.09.2021 04:40 13,5 C 12,8 C 12,3 C 94 % 1016,5 hPa 0,0 l/m 0 min 0 min 0 W/m 6,4 km/h (2 Bft) 95,74 %
25.09.2021 04:42 13,6 C 12,8 C 12,3 C 94 % 1016,5 hPa 0,0 l/m 0 min 0 min 0 W/m 3,2 km/h (1 Bft) 93,62 %
25.09.2021 04:44 13,6 C 12,8 C 12,3 C 94 % 1016,5 hPa 0,0 l/m 0 min 0 min 0 W/m 6,4 km/h (2 Bft) 93,62 %
25.09.2021 04:46 13,6 C 12,8 C 12,3 C 94 % 1016,5 hPa 0,0 l/m 0 min 0 min 0 W/m 6,4 km/h (2 Bft) 93,48 %
25.09.2021 04:48 13,6 C 12,8 C 12,3 C 94 % 1016,5 hPa 0,0 l/m 0 min 0 min 0 W/m 6,4 km/h (2 Bft) 93,62 %
25.09.2021 04:50 13,6 C 12,8 C 12,3 C 94 % 1016,5 hPa 0,0 l/m 0 min 0 min 0 W/m 3,2 km/h (1 Bft) 91,43 %
25.09.2021 04:52 13,6 C 12,8 C 12,3 C 94 % 1016,5 hPa 0,0 l/m 0 min 0 min 0 W/m 6,4 km/h (2 Bft) 93,62 %
25.09.2021 04:54 13,6 C 13,3 C 12,3 C 94 % 1016,5 hPa 0,0 l/m 0 min 0 min 0 W/m 6,4 km/h (2 Bft) 93,62 %
25.09.2021 04:56 13,6 C 13,3 C 12,3 C 94 % 1016,5 hPa 0,0 l/m 0 min 0 min 0 W/m 6,4 km/h (2 Bft) 93,62 %
25.09.2021 04:58 13,6 C 13,3 C 12,3 C 94 % 1016,5 hPa 0,0 l/m 0 min 0 min 0 W/m 9,7 km/h (2 Bft) 93,62 %
25.09.2021 05:00 13,6 C 13,3 C 12,3 C 94 % 1016,5 hPa 0,0 l/m 0 min 0 min 0 W/m 6,4 km/h (2 Bft) 93,48 %
25.09.2021 05:02 13,6 C 13,3 C 12,3 C 94 % 1016,5 hPa 0,0 l/m 0 min 0 min 0 W/m 3,2 km/h (1 Bft) 93,62 %
25.09.2021 05:04 13,6 C 13,3 C 12,3 C 94 % 1016,5 hPa 0,0 l/m 0 min 0 min 0 W/m 6,4 km/h (2 Bft) 95,74 %
25.09.2021 05:06 13,6 C 13,3 C 12,3 C 94 % 1016,4 hPa 0,0 l/m 0 min 0 min 0 W/m 6,4 km/h (2 Bft) 93,62 %
25.09.2021 05:08 13,6 C 13,3 C 12,3 C 94 % 1016,4 hPa 0,0 l/m 0 min 0 min 0 W/m 3,2 km/h (1 Bft) 95,74 %
25.09.2021 05:10 13,6 C 13,3 C 12,3 C 94 % 1016,4 hPa 0,0 l/m 0 min 0 min 0 W/m 6,4 km/h (2 Bft) 95,74 %
25.09.2021 05:12 13,6 C 13,3 C 12,8 C 94 % 1016,4 hPa 0,0 l/m 0 min 0 min 0 W/m 6,4 km/h (2 Bft) 91,49 %
25.09.2021 05:14 13,6 C 13,3 C 12,8 C 94 % 1016,4 hPa 0,0 l/m 0 min 0 min 0 W/m 3,2 km/h (1 Bft) 93,48 %
25.09.2021 05:16 13,6 C 13,3 C 12,8 C 94 % 1016,4 hPa 0,0 l/m 0 min 0 min 0 W/m 3,2 km/h (1 Bft) 95,74 %
25.09.2021 05:18 13,6 C 13,3 C 12,8 C 94 % 1016,4 hPa 0,0 l/m 0 min 0 min 0 W/m 6,4 km/h (2 Bft) 95,74 %
25.09.2021 05:20 13,6 C 13,3 C 12,8 C 94 % 1016,4 hPa 0,0 l/m 0 min 0 min 0 W/m 6,4 km/h (2 Bft) 95,74 %
25.09.2021 05:22 13,7 C 13,3 C 12,8 C 94 % 1016,4 hPa 0,0 l/m 0 min 0 min 0 W/m 3,2 km/h (1 Bft) 95,74 %
25.09.2021 05:24 13,7 C 13,3 C 12,8 C 94 % 1016,3 hPa 0,0 l/m 0 min 0 min 0 W/m 6,4 km/h (2 Bft) 97,87 %
25.09.2021 05:26 13,7 C 13,3 C 12,8 C 94 % 1016,4 hPa 0,0 l/m 0 min 0 min 0 W/m 3,2 km/h (1 Bft) 97,83 %
25.09.2021 05:28 13,7 C 13,3 C 12,8 C 94 % 1016,3 hPa 0,0 l/m 0 min 0 min 0 W/m 3,2 km/h (1 Bft) 97,87 %
25.09.2021 05:30 13,8 C 13,3 C 12,8 C 94 % 1016,4 hPa 0,0 l/m 0 min 0 min 0 W/m 6,4 km/h (2 Bft) 97,87 %
25.09.2021 05:32 13,8 C 13,3 C 12,8 C 94 % 1016,3 hPa 0,0 l/m 0 min 0 min 0 W/m 3,2 km/h (1 Bft) 100,00 %
25.09.2021 05:34 13,8 C 13,3 C 12,8 C 94 % 1016,3 hPa 0,0 l/m 0 min 0 min 0 W/m 3,2 km/h (1 Bft) 100,00 %
25.09.2021 05:36 13,8 C 13,3 C 12,8 C 94 % 1016,3 hPa 0,0 l/m 0 min 0 min 0 W/m 6,4 km/h (2 Bft) 97,83 %
25.09.2021 05:38 13,8 C 13,3 C 12,8 C 94 % 1016,3 hPa 0,0 l/m 0 min 0 min 0 W/m 9,7 km/h (2 Bft) 97,87 %
25.09.2021 05:40 13,8 C 13,3 C 12,8 C 94 % 1016,3 hPa 0,0 l/m 0 min 0 min 0 W/m 6,4 km/h (2 Bft) 100,00 %
25.09.2021 05:42 13,8 C 13,3 C 12,8 C 94 % 1016,3 hPa 0,0 l/m 0 min 0 min 0 W/m 6,4 km/h (2 Bft) 100,00 %
25.09.2021 05:44 13,8 C 13,3 C 12,8 C 94 % 1016,3 hPa 0,0 l/m 0 min 0 min 0 W/m 6,4 km/h (2 Bft) 100,00 %
25.09.2021 05:46 13,8 C 13,3 C 12,8 C 94 % 1016,3 hPa 0,0 l/m 0 min 0 min 0 W/m 3,2 km/h (1 Bft) 97,87 %
25.09.2021 05:48 13,8 C 13,3 C 12,8 C 94 % 1016,3 hPa 0,0 l/m 0 min 0 min 0 W/m 3,2 km/h (1 Bft) 100,00 %
25.09.2021 05:50 13,9 C 13,3 C 12,8 C 94 % 1016,3 hPa 0,0 l/m 0 min 0 min 0 W/m 6,4 km/h (2 Bft) 100,00 %
25.09.2021 05:52 13,9 C 13,3 C 12,8 C 94 % 1016,3 hPa 0,0 l/m 0 min 0 min 0 W/m 6,4 km/h (2 Bft) 100,00 %
25.09.2021 05:54 13,9 C 13,3 C 12,8 C 94 % 1016,3 hPa 0,0 l/m 0 min 0 min 0 W/m 3,2 km/h (1 Bft) 100,00 %
25.09.2021 05:56 13,9 C 13,3 C 12,8 C 94 % 1016,2 hPa 0,0 l/m 0 min 0 min 0 W/m 6,4 km/h (2 Bft) 100,00 %
25.09.2021 05:58 13,9 C 13,3 C 12,8 C 94 % 1016,3 hPa 0,0 l/m 0 min 0 min 0 W/m 6,4 km/h (2 Bft) 100,00 %
25.09.2021 06:00 13,9 C 13,3 C 12,8 C 94 % 1016,2 hPa 0,0 l/m 0 min 0 min 0 W/m 6,4 km/h (2 Bft) 100,00 %
25.09.2021 06:02 13,9 C 13,3 C 12,8 C 94 % 1016,2 hPa 0,0 l/m 0 min 0 min 0 W/m 3,2 km/h (1 Bft) 100,00 %
25.09.2021 06:04 13,9 C 13,3 C 12,8 C 94 % 1016,3 hPa 0,0 l/m 0 min 0 min 0 W/m 6,4 km/h (2 Bft) 100,00 %
25.09.2021 06:08 13,9 C 13,3 C 12,8 C 94 % 1016,2 hPa 0,0 l/m 0 min 0 min 0 W/m 6,4 km/h (2 Bft) 100,00 %
25.09.2021 06:10 13,9 C 13,3 C 12,8 C 94 % 1016,2 hPa 0,0 l/m 0 min 0 min 0 W/m 6,4 km/h (2 Bft) 100,00 %
25.09.2021 06:12 13,9 C 13,3 C 12,8 C 94 % 1016,2 hPa 0,0 l/m 0 min 0 min 0 W/m 6,4 km/h (2 Bft) 97,83 %
25.09.2021 06:14 13,9 C 13,3 C 12,8 C 94 % 1016,2 hPa 0,0 l/m 0 min 0 min 0 W/m 6,4 km/h (2 Bft) 97,87 %
25.09.2021 06:16 14,0 C 13,3 C 12,8 C 94 % 1016,3 hPa 0,0 l/m 0 min 0 min 0 W/m 3,2 km/h (1 Bft) 97,87 %
25.09.2021 06:18 14,0 C 13,3 C 12,8 C 94 % 1016,2 hPa 0,0 l/m 0 min 0 min 0 W/m 6,4 km/h (2 Bft) 100,00 %
25.09.2021 06:20 14,0 C 13,3 C 12,8 C 94 % 1016,3 hPa 0,0 l/m 0 min 0 min 0 W/m 9,7 km/h (2 Bft) 100,00 %
25.09.2021 06:22 14,0 C 13,3 C 12,8 C 94 % 1016,2 hPa 0,0 l/m 0 min 0 min 0 W/m 6,4 km/h (2 Bft) 95,74 %
25.09.2021 06:24 14,0 C 13,3 C 12,8 C 94 % 1016,3 hPa 0,0 l/m 0 min 0 min 0 W/m 6,4 km/h (2 Bft) 97,83 %
25.09.2021 06:26 14,0 C 13,3 C 12,8 C 94 % 1016,2 hPa 0,0 l/m 0 min 0 min 0 W/m 6,4 km/h (2 Bft) 97,87 %
25.09.2021 06:28 14,0 C 13,3 C 12,8 C 94 % 1016,2 hPa 0,0 l/m 0 min 0 min 0 W/m 6,4 km/h (2 Bft) 97,87 %
25.09.2021 06:30 14,0 C 13,3 C 12,8 C 94 % 1016,1 hPa 0,0 l/m 0 min 0 min 0 W/m 6,4 km/h (2 Bft) 97,87 %
25.09.2021 06:32 14,0 C 13,3 C 12,8 C 94 % 1016,1 hPa 0,0 l/m 0 min 0 min 0 W/m 6,4 km/h (2 Bft) 95,74 %
25.09.2021 06:34 14,0 C 13,3 C 12,8 C 94 % 1016,2 hPa 0,0 l/m 0 min 0 min 0 W/m 6,4 km/h (2 Bft) 97,87 %
25.09.2021 06:36 14,0 C 13,3 C 12,8 C 94 % 1016,1 hPa 0,0 l/m 0 min 0 min 0 W/m 6,4 km/h (2 Bft) 97,83 %
25.09.2021 06:38 14,0 C 13,3 C 12,8 C 94 % 1016,1 hPa 0,0 l/m 0 min 0 min 0 W/m 3,2 km/h (1 Bft) 97,87 %
25.09.2021 06:40 14,1 C 13,3 C 12,8 C 94 % 1016,1 hPa 0,0 l/m 0 min 0 min 0 W/m 6,4 km/h (2 Bft) 97,87 %
25.09.2021 06:42 14,1 C 13,3 C 12,8 C 94 % 1016,2 hPa 0,0 l/m 0 min 0 min 0 W/m 9,7 km/h (2 Bft) 97,87 %
25.09.2021 06:44 14,1 C 13,9 C 12,8 C 94 % 1016,1 hPa 0,0 l/m 0 min 0 min 0 W/m 9,7 km/h (2 Bft) 97,87 %
25.09.2021 06:46 14,1 C 13,9 C 12,8 C 94 % 1016,2 hPa 0,0 l/m 0 min 0 min 0 W/m 3,2 km/h (1 Bft) 97,87 %
25.09.2021 06:48 14,1 C 13,9 C 12,8 C 94 % 1016,1 hPa 0,0 l/m 0 min 0 min 0 W/m 6,4 km/h (2 Bft) 97,83 %
25.09.2021 06:50 14,1 C 13,9 C 12,8 C 94 % 1016,1 hPa 0,0 l/m 0 min 0 min 0 W/m 3,2 km/h (1 Bft) 97,87 %
25.09.2021 06:52 14,1 C 13,9 C 12,8 C 94 % 1016,1 hPa 0,0 l/m 0 min 0 min 0 W/m 0,0 km/h (0 Bft) 97,87 %
25.09.2021 06:54 14,2 C 13,9 C 12,8 C 94 % 1016,2 hPa 0,0 l/m 0 min 0 min 0 W/m 3,2 km/h (1 Bft) 100,00 %
25.09.2021 06:56 14,2 C 13,9 C 12,8 C 94 % 1016,1 hPa 0,0 l/m 0 min 0 min 0 W/m 3,2 km/h (1 Bft) 100,00 %
25.09.2021 06:58 14,2 C 13,9 C 12,8 C 94 % 1016,2 hPa 0,0 l/m 0 min 0 min 0 W/m 6,4 km/h (2 Bft) 97,87 %
25.09.2021 07:00 14,2 C 13,9 C 12,8 C 94 % 1016,2 hPa 0,0 l/m 0 min 0 min 0 W/m 3,2 km/h (1 Bft) 100,00 %
25.09.2021 07:02 14,2 C 13,9 C 12,8 C 94 % 1016,2 hPa 0,0 l/m 0 min 0 min 0 W/m 3,2 km/h (1 Bft) 100,00 %
25.09.2021 07:04 14,2 C 13,9 C 12,8 C 94 % 1016,2 hPa 0,0 l/m 0 min 0 min 0 W/m 3,2 km/h (1 Bft) 97,87 %
25.09.2021 07:06 14,2 C 13,9 C 12,8 C 94 % 1016,2 hPa 0,0 l/m 0 min 0 min 0 W/m 3,2 km/h (1 Bft) 95,74 %
25.09.2021 07:08 14,2 C 13,3 C 12,8 C 94 % 1016,3 hPa 0,0 l/m 0 min 0 min 0 W/m 3,2 km/h (1 Bft) 100,00 %
25.09.2021 07:10 14,2 C 13,3 C 12,8 C 94 % 1016,3 hPa 0,0 l/m 0 min 0 min 0 W/m 3,2 km/h (1 Bft) 100,00 %
25.09.2021 07:12 14,2 C 13,3 C 12,8 C 94 % 1016,3 hPa 0,0 l/m 0 min 0 min 0 W/m 3,2 km/h (1 Bft) 100,00 %
25.09.2021 07:14 14,2 C 13,3 C 12,8 C 94 % 1016,4 hPa 0,0 l/m 0 min 0 min 0 W/m 3,2 km/h (1 Bft) 93,62 %
25.09.2021 07:16 14,2 C 13,3 C 12,8 C 94 % 1016,4 hPa 0,0 l/m 0 min 0 min 0 W/m 3,2 km/h (1 Bft) 97,87 %
25.09.2021 07:18 14,2 C 13,3 C 12,8 C 94 % 1016,4 hPa 0,0 l/m 0 min 0 min 0 W/m 3,2 km/h (1 Bft) 100,00 %
25.09.2021 07:20 14,2 C 13,3 C 12,8 C 94 % 1016,4 hPa 0,0 l/m 0 min 0 min 0 W/m 3,2 km/h (1 Bft) 97,87 %
25.09.2021 07:22 14,2 C 13,3 C 12,8 C 94 % 1016,4 hPa 0,0 l/m 0 min 0 min 0 W/m 3,2 km/h (1 Bft) 97,87 %
25.09.2021 07:24 14,2 C 13,3 C 12,8 C 94 % 1016,4 hPa 0,0 l/m 0 min 0 min 0 W/m 3,2 km/h (1 Bft) 97,83 %
25.09.2021 07:26 14,2 C 13,3 C 12,8 C 94 % 1016,4 hPa 0,0 l/m 0 min 0 min 0 W/m 3,2 km/h (1 Bft) 97,87 %
25.09.2021 07:28 14,2 C 13,3 C 12,8 C 94 % 1016,4 hPa 0,0 l/m 0 min 0 min 0 W/m 6,4 km/h (2 Bft) 97,87 %
25.09.2021 07:30 14,2 C 13,3 C 12,8 C 94 % 1016,4 hPa 0,0 l/m 0 min 0 min 0 W/m 3,2 km/h (1 Bft) 95,74 %
25.09.2021 07:32 14,2 C 13,3 C 12,8 C 94 % 1016,4 hPa 0,0 l/m 0 min 0 min 0 W/m 3,2 km/h (1 Bft) 97,87 %
25.09.2021 07:34 14,2 C 13,3 C 12,8 C 94 % 1016,5 hPa 0,0 l/m 0 min 0 min 0 W/m 3,2 km/h (1 Bft) 97,87 %
25.09.2021 07:36 14,2 C 13,3 C 12,8 C 94 % 1016,5 hPa 0,0 l/m 0 min 0 min 0 W/m 6,4 km/h (2 Bft) 97,83 %
25.09.2021 07:38 14,2 C 13,3 C 12,8 C 94 % 1016,5 hPa 0,0 l/m 0 min 0 min 5 W/m 6,4 km/h (2 Bft) 95,74 %
25.09.2021 07:40 14,2 C 13,9 C 12,8 C 94 % 1016,5 hPa 0,0 l/m 0 min 0 min 5 W/m 6,4 km/h (2 Bft) 95,74 %
25.09.2021 07:42 14,2 C 13,9 C 12,8 C 94 % 1016,5 hPa 0,0 l/m 0 min 0 min 5 W/m 3,2 km/h (1 Bft) 95,74 %
25.09.2021 07:44 14,2 C 13,9 C 12,8 C 94 % 1016,5 hPa 0,0 l/m 0 min 0 min 6 W/m 6,4 km/h (2 Bft) 93,62 %
25.09.2021 07:46 14,2 C 13,9 C 12,8 C 94 % 1016,5 hPa 0,0 l/m 0 min 0 min 7 W/m 6,4 km/h (2 Bft) 89,36 %
25.09.2021 07:48 14,2 C 13,9 C 13,4 C 94 % 1016,5 hPa 0,0 l/m 0 min 0 min 7 W/m 6,4 km/h (2 Bft) 95,65 %
25.09.2021 07:50 14,2 C 13,9 C 13,4 C 94 % 1016,5 hPa 0,0 l/m 0 min 0 min 8 W/m 6,4 km/h (2 Bft) 95,74 %
25.09.2021 07:52 14,2 C 13,9 C 13,4 C 94 % 1016,6 hPa 0,0 l/m 0 min 0 min 9 W/m 6,4 km/h (2 Bft) 95,74 %
25.09.2021 07:54 14,2 C 13,9 C 13,4 C 94 % 1016,5 hPa 0,0 l/m 0 min 0 min 9 W/m 6,4 km/h (2 Bft) 95,74 %
25.09.2021 07:56 14,2 C 13,9 C 13,4 C 94 % 1016,5 hPa 0,0 l/m 0 min 0 min 11 W/m 6,4 km/h (2 Bft) 95,74 %
25.09.2021 07:58 14,2 C 13,9 C 13,4 C 94 % 1016,5 hPa 0,0 l/m 0 min 0 min 11 W/m 3,2 km/h (1 Bft) 95,74 %
25.09.2021 08:00 14,2 C 13,9 C 13,4 C 94 % 1016,5 hPa 0,0 l/m 0 min 0 min 12 W/m 3,2 km/h (1 Bft) 95,65 %
25.09.2021 08:02 14,2 C 13,9 C 13,4 C 94 % 1016,5 hPa 0,0 l/m 0 min 0 min 12 W/m 6,4 km/h (2 Bft) 95,74 %
25.09.2021 08:04 14,2 C 13,9 C 13,4 C 94 % 1016,5 hPa 0,0 l/m 0 min 0 min 14 W/m 3,2 km/h (1 Bft) 93,62 %
25.09.2021 08:06 14,2 C 13,9 C 13,4 C 94 % 1016,5 hPa 0,0 l/m 0 min 0 min 14 W/m 6,4 km/h (2 Bft) 97,92 %
25.09.2021 08:08 14,2 C 13,9 C 13,4 C 94 % 1016,5 hPa 0,0 l/m 0 min 0 min 15 W/m 3,2 km/h (1 Bft) 93,62 %
25.09.2021 08:10 14,2 C 13,9 C 13,4 C 94 % 1016,6 hPa 0,0 l/m 0 min 0 min 16 W/m 6,4 km/h (2 Bft) 95,65 %
25.09.2021 08:12 14,2 C 13,9 C 13,4 C 94 % 1016,5 hPa 0,0 l/m 0 min 0 min 16 W/m 3,2 km/h (1 Bft) 97,87 %
25.09.2021 08:14 14,3 C 13,9 C 13,4 C 94 % 1016,5 hPa 0,0 l/m 0 min 0 min 17 W/m 6,4 km/h (2 Bft) 97,87 %
25.09.2021 08:16 14,3 C 13,9 C 13,4 C 94 % 1016,5 hPa 0,0 l/m 0 min 0 min 18 W/m 3,2 km/h (1 Bft) 97,87 %
25.09.2021 08:18 14,3 C 13,9 C 13,4 C 94 % 1016,5 hPa 0,0 l/m 0 min 0 min 18 W/m 6,4 km/h (2 Bft) 95,74 %
25.09.2021 08:20 14,3 C 13,9 C 13,4 C 94 % 1016,5 hPa 0,0 l/m 0 min 0 min 19 W/m 3,2 km/h (1 Bft) 93,62 %
25.09.2021 08:22 14,3 C 13,9 C 13,4 C 94 % 1016,6 hPa 0,0 l/m 0 min 0 min 19 W/m 3,2 km/h (1 Bft) 97,83 %
25.09.2021 08:24 14,3 C 13,9 C 13,4 C 94 % 1016,6 hPa 0,0 l/m 0 min 0 min 21 W/m 3,2 km/h (1 Bft) 97,87 %
25.09.2021 08:26 14,3 C 13,9 C 13,4 C 94 % 1016,6 hPa 0,0 l/m 0 min 0 min 21 W/m 6,4 km/h (2 Bft) 97,87 %
25.09.2021 08:28 14,4 C 13,9 C 13,4 C 94 % 1016,6 hPa 0,0 l/m 0 min 0 min 22 W/m 6,4 km/h (2 Bft) 95,74 %
25.09.2021 08:30 14,4 C 13,9 C 13,4 C 94 % 1016,6 hPa 0,0 l/m 0 min 0 min 24 W/m 3,2 km/h (1 Bft) 93,62 %
25.09.2021 08:32 14,4 C 13,9 C 13,4 C 94 % 1016,6 hPa 0,0 l/m 0 min 0 min 26 W/m 3,2 km/h (1 Bft) 95,74 %
25.09.2021 08:34 14,4 C 13,9 C 13,4 C 94 % 1016,6 hPa 0,0 l/m 0 min 0 min 28 W/m 3,2 km/h (1 Bft) 97,83 %
25.09.2021 08:36 14,4 C 13,9 C 13,4 C 94 % 1016,7 hPa 0,0 l/m 0 min 0 min 28 W/m 6,4 km/h (2 Bft) 97,87 %
25.09.2021 08:38 14,4 C 13,9 C 13,4 C 94 % 1016,6 hPa 0,0 l/m 0 min 0 min 30 W/m 3,2 km/h (1 Bft) 93,62 %
25.09.2021 08:40 14,4 C 13,9 C 13,4 C 94 % 1016,6 hPa 0,0 l/m 0 min 0 min 32 W/m 6,4 km/h (2 Bft) 97,87 %
25.09.2021 08:42 14,4 C 13,9 C 13,4 C 94 % 1016,6 hPa 0,0 l/m 0 min 0 min 32 W/m 6,4 km/h (2 Bft) 97,87 %
25.09.2021 08:44 14,4 C 13,9 C 13,4 C 94 % 1016,6 hPa 0,0 l/m 0 min 0 min 33 W/m 6,4 km/h (2 Bft) 97,87 %
25.09.2021 08:46 14,5 C 14,4 C 13,4 C 94 % 1016,6 hPa 0,0 l/m 0 min 0 min 36 W/m 6,4 km/h (2 Bft) 93,48 %
25.09.2021 08:48 14,5 C 14,4 C 13,4 C 94 % 1016,6 hPa 0,0 l/m 0 min 0 min 38 W/m 9,7 km/h (2 Bft) 97,87 %
25.09.2021 08:50 14,5 C 14,4 C 13,4 C 94 % 1016,6 hPa 0,0 l/m 0 min 0 min 39 W/m 3,2 km/h (1 Bft) 97,87 %
25.09.2021 08:52 14,5 C 14,4 C 13,4 C 94 % 1016,6 hPa 0,0 l/m 0 min 0 min 40 W/m 3,2 km/h (1 Bft) 100,00 %
25.09.2021 08:54 14,5 C 14,4 C 13,4 C 94 % 1016,6 hPa 0,0 l/m 0 min 0 min 41 W/m 3,2 km/h (1 Bft) 100,00 %
25.09.2021 08:56 14,5 C 14,4 C 13,4 C 94 % 1016,7 hPa 0,0 l/m 0 min 0 min 43 W/m 3,2 km/h (1 Bft) 100,00 %
25.09.2021 08:58 14,5 C 14,4 C 13,4 C 94 % 1016,7 hPa 0,0 l/m 0 min 0 min 46 W/m 3,2 km/h (1 Bft) 100,00 %
25.09.2021 09:00 14,5 C 14,4 C 13,4 C 94 % 1016,6 hPa 0,0 l/m 0 min 0 min 47 W/m 6,4 km/h (2 Bft) 100,00 %
25.09.2021 09:02 14,6 C 14,4 C 13,4 C 94 % 1016,6 hPa 0,0 l/m 0 min 0 min 48 W/m 3,2 km/h (1 Bft) 97,92 %
25.09.2021 09:04 14,6 C 14,4 C 13,4 C 94 % 1016,6 hPa 0,0 l/m 0 min 0 min 49 W/m 6,4 km/h (2 Bft) 100,00 %
25.09.2021 09:06 14,6 C 14,4 C 13,9 C 94 % 1016,6 hPa 0,0 l/m 0 min 0 min 51 W/m 3,2 km/h (1 Bft) 97,87 %
25.09.2021 09:08 14,6 C 14,4 C 13,9 C 94 % 1016,7 hPa 0,0 l/m 0 min 0 min 52 W/m 6,4 km/h (2 Bft) 100,00 %
25.09.2021 09:10 14,6 C 14,4 C 13,9 C 94 % 1016,6 hPa 0,0 l/m 0 min 0 min 53 W/m 3,2 km/h (1 Bft) 100,00 %
25.09.2021 09:12 14,6 C 14,4 C 13,9 C 94 % 1016,6 hPa 0,0 l/m 0 min 0 min 55 W/m 6,4 km/h (2 Bft) 100,00 %
25.09.2021 09:14 14,7 C 14,4 C 13,9 C 94 % 1016,6 hPa 0,0 l/m 0 min 0 min 57 W/m 6,4 km/h (2 Bft) 100,00 %
25.09.2021 09:16 14,8 C 14,4 C 13,9 C 94 % 1016,6 hPa 0,0 l/m 0 min 0 min 59 W/m 3,2 km/h (1 Bft) 100,00 %
25.09.2021 09:18 14,8 C 14,4 C 13,9 C 94 % 1016,6 hPa 0,0 l/m 0 min 0 min 61 W/m 3,2 km/h (1 Bft) 100,00 %
25.09.2021 09:20 14,8 C 14,4 C 13,9 C 94 % 1016,6 hPa 0,0 l/m 0 min 0 min 63 W/m 3,2 km/h (1 Bft) 93,62 %
25.09.2021 09:22 14,8 C 14,4 C 13,9 C 94 % 1016,6 hPa 0,0 l/m 0 min 0 min 68 W/m 6,4 km/h (2 Bft) 100,00 %
25.09.2021 09:24 14,8 C 14,4 C 13,9 C 94 % 1016,6 hPa 0,0 l/m 0 min 0 min 70 W/m 6,4 km/h (2 Bft) 100,00 %
25.09.2021 09:26 14,9 C 14,4 C 13,9 C 94 % 1016,6 hPa 0,0 l/m 0 min 0 min 72 W/m 12,9 km/h (3 Bft) 100,00 %
25.09.2021 09:28 14,9 C 14,4 C 13,9 C 94 % 1016,7 hPa 0,0 l/m 0 min 0 min 74 W/m 12,9 km/h (3 Bft) 100,00 %
25.09.2021 09:30 14,9 C 14,4 C 13,9 C 94 % 1016,7 hPa 0,0 l/m 0 min 0 min 76 W/m 12,9 km/h (3 Bft) 100,00 %
25.09.2021 09:32 14,9 C 15,0 C 13,9 C 94 % 1016,8 hPa 0,0 l/m 0 min 0 min 80 W/m 12,9 km/h (3 Bft) 100,00 %
25.09.2021 09:34 14,9 C 15,0 C 13,9 C 94 % 1016,8 hPa 0,0 l/m 0 min 0 min 86 W/m 9,7 km/h (2 Bft) 100,00 %
25.09.2021 09:36 15,0 C 15,0 C 13,9 C 94 % 1016,8 hPa 0,0 l/m 0 min 0 min 94 W/m 6,4 km/h (2 Bft) 97,87 %
25.09.2021 09:38 15,0 C 15,0 C 14,5 C 93 % 1016,8 hPa 0,0 l/m 0 min 0 min 102 W/m 3,2 km/h (1 Bft) 100,00 %
25.09.2021 09:40 15,0 C 15,0 C 14,5 C 93 % 1016,8 hPa 0,0 l/m 0 min 0 min 110 W/m 3,2 km/h (1 Bft) 100,00 %
25.09.2021 09:42 15,1 C 15,0 C 14,5 C 93 % 1016,8 hPa 0,0 l/m 0 min 0 min 116 W/m 6,4 km/h (2 Bft) 100,00 %
25.09.2021 09:44 15,1 C 15,6 C 14,5 C 93 % 1016,8 hPa 0,0 l/m 0 min 0 min 119 W/m 12,9 km/h (3 Bft) 100,00 %
25.09.2021 09:46 15,1 C 15,6 C 14,5 C 93 % 1016,9 hPa 0,0 l/m 0 min 0 min 121 W/m 6,4 km/h (2 Bft) 97,83 %
25.09.2021 09:48 15,2 C 15,6 C 14,5 C 93 % 1016,9 hPa 0,0 l/m 0 min 0 min 121 W/m 6,4 km/h (2 Bft) 100,00 %
25.09.2021 09:50 15,3 C 15,6 C 14,5 C 93 % 1016,9 hPa 0,0 l/m 0 min 0 min 121 W/m 3,2 km/h (1 Bft) 95,74 %
25.09.2021 09:52 15,3 C 15,6 C 14,5 C 93 % 1016,9 hPa 0,0 l/m 0 min 0 min 121 W/m 6,4 km/h (2 Bft) 100,00 %
25.09.2021 09:54 15,3 C 15,6 C 14,5 C 93 % 1016,9 hPa 0,0 l/m 0 min 0 min 120 W/m 6,4 km/h (2 Bft) 100,00 %
25.09.2021 09:56 15,4 C 15,6 C 14,5 C 93 % 1017,0 hPa 0,0 l/m 0 min 0 min 120 W/m 12,9 km/h (3 Bft) 100,00 %
25.09.2021 09:58 15,4 C 15,6 C 14,5 C 93 % 1017,0 hPa 0,0 l/m 0 min 0 min 124 W/m 12,9 km/h (3 Bft) 100,00 %
25.09.2021 10:00 15,5 C 15,6 C 15,0 C 93 % 1017,0 hPa 0,0 l/m 0 min 0 min 128 W/m 12,9 km/h (3 Bft) 97,87 %
25.09.2021 10:02 15,5 C 15,6 C 15,0 C 93 % 1017,0 hPa 0,0 l/m 0 min 0 min 130 W/m 6,4 km/h (2 Bft) 100,00 %
25.09.2021 10:04 15,5 C 15,6 C 15,0 C 93 % 1017,1 hPa 0,0 l/m 0 min 0 min 130 W/m 9,7 km/h (2 Bft) 100,00 %
25.09.2021 10:06 15,6 C 15,6 C 15,0 C 93 % 1017,1 hPa 0,0 l/m 0 min 0 min 133 W/m 12,9 km/h (3 Bft) 100,00 %
25.09.2021 10:08 15,6 C 15,6 C 15,0 C 92 % 1017,1 hPa 0,0 l/m 0 min 0 min 138 W/m 16,1 km/h (3 Bft) 97,87 %
25.09.2021 10:10 15,6 C 16,1 C 15,0 C 92 % 1017,1 hPa 0,0 l/m 0 min 0 min 144 W/m 6,4 km/h (2 Bft) 97,83 %
25.09.2021 10:12 15,7 C 16,1 C 15,0 C 92 % 1017,1 hPa 0,0 l/m 0 min 0 min 151 W/m 6,4 km/h (2 Bft) 97,87 %
25.09.2021 10:14 15,8 C 16,1 C 15,0 C 92 % 1017,1 hPa 0,0 l/m 0 min 0 min 155 W/m 12,9 km/h (3 Bft) 97,87 %
25.09.2021 10:16 15,8 C 16,1 C 15,0 C 92 % 1017,2 hPa 0,0 l/m 0 min 0 min 156 W/m 6,4 km/h (2 Bft) 97,87 %
25.09.2021 10:18 15,8 C 16,1 C 15,0 C 92 % 1017,1 hPa 0,0 l/m 0 min 0 min 155 W/m 6,4 km/h (2 Bft) 95,74 %
25.09.2021 10:20 15,9 C 16,1 C 15,0 C 91 % 1017,1 hPa 0,0 l/m 0 min 0 min 155 W/m 6,4 km/h (2 Bft) 93,48 %
25.09.2021 10:22 15,9 C 16,1 C 15,0 C 91 % 1017,2 hPa 0,0 l/m 0 min 0 min 156 W/m 12,9 km/h (3 Bft) 91,49 %
25.09.2021 10:24 16,0 C 16,1 C 15,0 C 91 % 1017,1 hPa 0,0 l/m 0 min 0 min 158 W/m 6,4 km/h (2 Bft) 93,62 %
25.09.2021 10:26 16,0 C 16,1 C 15,6 C 91 % 1017,2 hPa 0,0 l/m 0 min 0 min 158 W/m 6,4 km/h (2 Bft) 93,62 %
25.09.2021 10:28 16,1 C 16,7 C 15,6 C 91 % 1017,2 hPa 0,0 l/m 0 min 0 min 156 W/m 6,4 km/h (2 Bft) 93,62 %
25.09.2021 10:30 16,1 C 16,7 C 15,6 C 91 % 1017,2 hPa 0,0 l/m 0 min 0 min 159 W/m 16,1 km/h (3 Bft) 93,62 %
25.09.2021 10:32 16,2 C 16,7 C 15,6 C 90 % 1017,2 hPa 0,0 l/m 0 min 0 min 165 W/m 6,4 km/h (2 Bft) 86,96 %
25.09.2021 10:34 16,3 C 16,7 C 15,6 C 90 % 1017,2 hPa 0,0 l/m 0 min 0 min 175 W/m 12,9 km/h (3 Bft) 93,62 %
25.09.2021 10:36 16,3 C 16,7 C 15,6 C 90 % 1017,3 hPa 0,0 l/m 0 min 0 min 180 W/m 6,4 km/h (2 Bft) 93,62 %
25.09.2021 10:38 16,4 C 16,7 C 15,6 C 90 % 1017,3 hPa 0,0 l/m 0 min 0 min 179 W/m 6,4 km/h (2 Bft) 91,49 %
25.09.2021 10:40 16,4 C 16,7 C 15,6 C 90 % 1017,3 hPa 0,0 l/m 0 min 0 min 175 W/m 12,9 km/h (3 Bft) 91,49 %
25.09.2021 10:42 16,4 C 16,7 C 15,6 C 89 % 1017,3 hPa 0,0 l/m 0 min 0 min 173 W/m 6,4 km/h (2 Bft) 91,49 %
25.09.2021 10:44 16,5 C 16,7 C 15,6 C 89 % 1017,4 hPa 0,0 l/m 0 min 0 min 175 W/m 6,4 km/h (2 Bft) 91,30 %
25.09.2021 10:46 16,5 C 16,7 C 15,6 C 89 % 1017,4 hPa 0,0 l/m 0 min 0 min 178 W/m 6,4 km/h (2 Bft) 93,62 %
25.09.2021 10:48 16,6 C 16,7 C 15,6 C 89 % 1017,3 hPa 0,0 l/m 0 min 0 min 180 W/m 19,3 km/h (3 Bft) 91,49 %
25.09.2021 10:50 16,6 C 17,2 C 15,6 C 89 % 1017,3 hPa 0,0 l/m 0 min 0 min 182 W/m 9,7 km/h (2 Bft) 93,62 %
25.09.2021 10:52 16,7 C 17,2 C 15,6 C 88 % 1017,4 hPa 0,0 l/m 0 min 0 min 185 W/m 12,9 km/h (3 Bft) 93,62 %
25.09.2021 10:54 16,7 C 17,2 C 15,6 C 88 % 1017,4 hPa 0,0 l/m 0 min 0 min 184 W/m 3,2 km/h (1 Bft) 95,74 %
25.09.2021 10:56 16,8 C 17,2 C 16,1 C 88 % 1017,4 hPa 0,0 l/m 0 min 0 min 183 W/m 12,9 km/h (3 Bft) 93,62 %
25.09.2021 10:58 16,8 C 17,2 C 16,1 C 88 % 1017,4 hPa 0,0 l/m 0 min 0 min 183 W/m 9,7 km/h (2 Bft) 95,65 %
25.09.2021 11:00 16,9 C 17,2 C 16,1 C 88 % 1017,4 hPa 0,0 l/m 0 min 0 min 186 W/m 9,7 km/h (2 Bft) 95,74 %
25.09.2021 11:02 16,9 C 17,2 C 16,1 C 88 % 1017,4 hPa 0,0 l/m 0 min 0 min 189 W/m 9,7 km/h (2 Bft) 93,62 %
25.09.2021 11:04 17,0 C 17,2 C 16,1 C 88 % 1017,5 hPa 0,0 l/m 0 min 0 min 190 W/m 9,7 km/h (2 Bft) 97,87 %
25.09.2021 11:06 17,0 C 17,2 C 16,1 C 87 % 1017,4 hPa 0,0 l/m 0 min 0 min 193 W/m 16,1 km/h (3 Bft) 100,00 %
25.09.2021 11:08 17,1 C 17,2 C 16,1 C 87 % 1017,5 hPa 0,0 l/m 0 min 0 min 198 W/m 9,7 km/h (2 Bft) 100,00 %
25.09.2021 11:10 17,1 C 17,2 C 16,1 C 87 % 1017,4 hPa 0,0 l/m 0 min 0 min 203 W/m 9,7 km/h (2 Bft) 97,87 %
25.09.2021 11:12 17,2 C 17,2 C 16,1 C 87 % 1017,4 hPa 0,0 l/m 0 min 0 min 204 W/m 12,9 km/h (3 Bft) 100,00 %
25.09.2021 11:14 17,3 C 17,8 C 16,1 C 87 % 1017,4 hPa 0,0 l/m 0 min 0 min 204 W/m 22,5 km/h (4 Bft) 100,00 %
25.09.2021 11:16 17,3 C 17,2 C 16,1 C 87 % 1017,4 hPa 0,0 l/m 0 min 0 min 206 W/m 12,9 km/h (3 Bft) 100,00 %
25.09.2021 11:18 17,3 C 17,8 C 16,1 C 86 % 1017,5 hPa 0,0 l/m 0 min 0 min 209 W/m 12,9 km/h (3 Bft) 97,87 %
25.09.2021 11:20 17,4 C 17,8 C 16,1 C 86 % 1017,5 hPa 0,0 l/m 0 min 0 min 213 W/m 9,7 km/h (2 Bft) 100,00 %
25.09.2021 11:22 17,4 C 17,8 C 16,1 C 86 % 1017,5 hPa 0,0 l/m 0 min 0 min 214 W/m 6,4 km/h (2 Bft) 100,00 %
25.09.2021 11:24 17,4 C 17,8 C 16,1 C 86 % 1017,6 hPa 0,0 l/m 0 min 0 min 214 W/m 19,3 km/h (3 Bft) 100,00 %
25.09.2021 11:26 17,5 C 17,8 C 16,1 C 86 % 1017,6 hPa 0,0 l/m 0 min 0 min 210 W/m 12,9 km/h (3 Bft) 100,00 %
25.09.2021 11:28 17,5 C 17,8 C 16,1 C 85 % 1017,5 hPa 0,0 l/m 0 min 0 min 203 W/m 12,9 km/h (3 Bft) 100,00 %
25.09.2021 11:30 17,5 C 17,8 C 16,7 C 85 % 1017,6 hPa 0,0 l/m 0 min 0 min 195 W/m 25,7 km/h (4 Bft) 100,00 %
25.09.2021 11:32 17,5 C 17,8 C 16,1 C 85 % 1017,6 hPa 0,0 l/m 0 min 0 min 192 W/m 12,9 km/h (3 Bft) 100,00 %
25.09.2021 11:34 17,6 C 17,8 C 16,1 C 85 % 1017,6 hPa 0,0 l/m 0 min 0 min 196 W/m 19,3 km/h (3 Bft) 100,00 %
25.09.2021 11:36 17,6 C 17,8 C 16,1 C 85 % 1017,5 hPa 0,0 l/m 0 min 0 min 201 W/m 12,9 km/h (3 Bft) 100,00 %
25.09.2021 11:38 17,6 C 17,8 C 16,1 C 85 % 1017,5 hPa 0,0 l/m 0 min 0 min 203 W/m 16,1 km/h (3 Bft) 91,49 %
25.09.2021 11:40 17,6 C 17,8 C 16,1 C 85 % 1017,6 hPa 0,0 l/m 0 min 0 min 204 W/m 19,3 km/h (3 Bft) 85,11 %
25.09.2021 11:42 17,7 C 17,8 C 16,7 C 85 % 1017,5 hPa 0,0 l/m 0 min 0 min 204 W/m 6,4 km/h (2 Bft) 100,00 %
25.09.2021 11:44 17,8 C 17,8 C 16,7 C 85 % 1017,5 hPa 0,0 l/m 0 min 0 min 204 W/m 9,7 km/h (2 Bft) 100,00 %
25.09.2021 11:46 17,8 C 17,8 C 16,7 C 84 % 1017,5 hPa 0,0 l/m 0 min 0 min 204 W/m 12,9 km/h (3 Bft) 100,00 %
25.09.2021 11:48 17,8 C 17,8 C 16,7 C 84 % 1017,5 hPa 0,0 l/m 0 min 0 min 205 W/m 12,9 km/h (3 Bft) 100,00 %
25.09.2021 11:50 17,8 C 17,8 C 16,7 C 84 % 1017,6 hPa 0,0 l/m 0 min 0 min 206 W/m 12,9 km/h (3 Bft) 100,00 %
25.09.2021 11:52 17,9 C 17,8 C 16,7 C 84 % 1017,5 hPa 0,0 l/m 0 min 0 min 203 W/m 12,9 km/h (3 Bft) 97,87 %
25.09.2021 11:54 17,9 C 17,8 C 16,7 C 84 % 1017,6 hPa 0,0 l/m 0 min 0 min 202 W/m 12,9 km/h (3 Bft) 100,00 %
25.09.2021 11:56 17,9 C 18,3 C 16,7 C 84 % 1017,5 hPa 0,0 l/m 0 min 0 min 204 W/m 6,4 km/h (2 Bft) 97,83 %
25.09.2021 11:58 17,9 C 18,3 C 16,7 C 84 % 1017,5 hPa 0,0 l/m 0 min 0 min 211 W/m 6,4 km/h (2 Bft) 97,87 %
25.09.2021 12:00 17,9 C 18,3 C 16,7 C 84 % 1017,5 hPa 0,0 l/m 0 min 0 min 218 W/m 6,4 km/h (2 Bft) 100,00 %
25.09.2021 12:02 18,0 C 18,3 C 16,7 C 84 % 1017,6 hPa 0,0 l/m 0 min 0 min 222 W/m 19,3 km/h (3 Bft) 97,92 %
25.09.2021 12:04 18,0 C 18,3 C 16,7 C 84 % 1017,6 hPa 0,0 l/m 0 min 0 min 223 W/m 9,7 km/h (2 Bft) 100,00 %
25.09.2021 12:06 18,0 C 18,3 C 16,7 C 84 % 1017,5 hPa 0,0 l/m 0 min 0 min 222 W/m 6,4 km/h (2 Bft) 95,74 %
25.09.2021 12:08 18,0 C 18,3 C 16,7 C 84 % 1017,5 hPa 0,0 l/m 0 min 0 min 220 W/m 12,9 km/h (3 Bft) 100,00 %
25.09.2021 12:10 18,1 C 18,3 C 16,7 C 84 % 1017,5 hPa 0,0 l/m 0 min 0 min 216 W/m 6,4 km/h (2 Bft) 100,00 %
25.09.2021 12:12 18,1 C 18,3 C 16,7 C 84 % 1017,5 hPa 0,0 l/m 0 min 0 min 214 W/m 6,4 km/h (2 Bft) 100,00 %
25.09.2021 12:14 18,1 C 18,3 C 16,7 C 84 % 1017,4 hPa 0,0 l/m 0 min 0 min 216 W/m 6,4 km/h (2 Bft) 97,87 %
25.09.2021 12:16 18,2 C 18,3 C 17,3 C 84 % 1017,4 hPa 0,0 l/m 0 min 0 min 219 W/m 6,4 km/h (2 Bft) 100,00 %
25.09.2021 12:18 18,3 C 18,9 C 17,3 C 84 % 1017,4 hPa 0,0 l/m 0 min 0 min 217 W/m 12,9 km/h (3 Bft) 100,00 %
25.09.2021 12:20 18,3 C 18,9 C 17,3 C 84 % 1017,3 hPa 0,0 l/m 0 min 0 min 213 W/m 6,4 km/h (2 Bft) 100,00 %
25.09.2021 12:22 18,3 C 18,9 C 17,3 C 84 % 1017,3 hPa 0,0 l/m 0 min 0 min 213 W/m 3,2 km/h (1 Bft) 100,00 %
25.09.2021 12:24 18,4 C 18,9 C 17,3 C 84 % 1017,4 hPa 0,0 l/m 0 min 0 min 214 W/m 6,4 km/h (2 Bft) 97,87 %
25.09.2021 12:26 18,4 C 18,9 C 17,3 C 84 % 1017,3 hPa 0,0 l/m 0 min 0 min 216 W/m 12,9 km/h (3 Bft) 97,87 %
25.09.2021 12:28 18,4 C 18,9 C 17,3 C 84 % 1017,3 hPa 0,0 l/m 0 min 0 min 222 W/m 3,2 km/h (1 Bft) 97,87 %
25.09.2021 12:30 18,4 C 18,9 C 17,3 C 84 % 1017,3 hPa 0,0 l/m 0 min 0 min 229 W/m 6,4 km/h (2 Bft) 97,83 %
25.09.2021 12:32 18,5 C 18,9 C 17,3 C 83 % 1017,3 hPa 0,0 l/m 0 min 0 min 229 W/m 6,4 km/h (2 Bft) 97,87 %
25.09.2021 12:34 18,5 C 18,9 C 17,3 C 83 % 1017,3 hPa 0,0 l/m 0 min 0 min 222 W/m 6,4 km/h (2 Bft) 97,87 %
25.09.2021 12:36 18,5 C 18,9 C 17,3 C 83 % 1017,3 hPa 0,0 l/m 0 min 0 min 220 W/m 3,2 km/h (1 Bft) 97,87 %
25.09.2021 12:38 18,6 C 18,9 C 17,3 C 83 % 1017,3 hPa 0,0 l/m 0 min 0 min 221 W/m 3,2 km/h (1 Bft) 95,74 %
25.09.2021 12:40 18,6 C 18,9 C 17,3 C 83 % 1017,2 hPa 0,0 l/m 0 min 0 min 221 W/m 3,2 km/h (1 Bft) 97,87 %
25.09.2021 12:42 18,6 C 18,9 C 17,3 C 83 % 1017,2 hPa 0,0 l/m 0 min 0 min 215 W/m 3,2 km/h (1 Bft) 97,83 %
25.09.2021 12:44 18,7 C 18,9 C 17,3 C 83 % 1017,2 hPa 0,0 l/m 0 min 0 min 211 W/m 12,9 km/h (3 Bft) 97,87 %
25.09.2021 12:46 18,8 C 18,9 C 17,3 C 83 % 1017,2 hPa 0,0 l/m 0 min 0 min 211 W/m 6,4 km/h (2 Bft) 95,74 %
25.09.2021 12:48 18,8 C 18,9 C 17,3 C 83 % 1017,3 hPa 0,0 l/m 0 min 0 min 211 W/m 6,4 km/h (2 Bft) 97,87 %
25.09.2021 12:50 18,8 C 18,9 C 17,3 C 83 % 1017,2 hPa 0,0 l/m 0 min 0 min 206 W/m 3,2 km/h (1 Bft) 97,87 %
25.09.2021 12:52 18,9 C 18,9 C 17,3 C 83 % 1017,3 hPa 0,0 l/m 0 min 0 min 201 W/m 3,2 km/h (1 Bft) 97,87 %
25.09.2021 12:54 18,9 C 18,9 C 17,3 C 83 % 1017,3 hPa 0,0 l/m 0 min 0 min 201 W/m 6,4 km/h (2 Bft) 95,65 %
25.09.2021 12:56 18,9 C 18,9 C 17,3 C 83 % 1017,2 hPa 0,0 l/m 0 min 0 min 206 W/m 6,4 km/h (2 Bft) 93,62 %
25.09.2021 12:58 19,0 C 18,9 C 17,3 C 83 % 1017,2 hPa 0,0 l/m 0 min 0 min 208 W/m 6,4 km/h (2 Bft) 95,74 %
25.09.2021 13:00 19,0 C 18,9 C 17,3 C 83 % 1017,2 hPa 0,0 l/m 0 min 0 min 205 W/m 6,4 km/h (2 Bft) 95,74 %
25.09.2021 13:02 19,0 C 18,9 C 17,3 C 82 % 1017,3 hPa 0,0 l/m 0 min 0 min 201 W/m 6,4 km/h (2 Bft) 93,62 %
25.09.2021 13:04 19,1 C 19,4 C 17,3 C 82 % 1017,2 hPa 0,0 l/m 0 min 0 min 198 W/m 9,7 km/h (2 Bft) 97,87 %
25.09.2021 13:06 19,1 C 18,9 C 17,3 C 82 % 1017,2 hPa 0,0 l/m 0 min 0 min 197 W/m 3,2 km/h (1 Bft) 97,83 %
25.09.2021 13:08 19,1 C 19,4 C 17,3 C 82 % 1017,3 hPa 0,0 l/m 0 min 0 min 196 W/m 3,2 km/h (1 Bft) 97,87 %
25.09.2021 13:10 19,2 C 19,4 C 17,3 C 82 % 1017,2 hPa 0,0 l/m 0 min 0 min 193 W/m 6,4 km/h (2 Bft) 97,87 %
25.09.2021 13:12 19,2 C 19,4 C 17,3 C 82 % 1017,2 hPa 0,0 l/m 0 min 0 min 187 W/m 3,2 km/h (1 Bft) 97,87 %
25.09.2021 13:14 19,3 C 18,9 C 17,3 C 82 % 1017,2 hPa 0,0 l/m 0 min 0 min 181 W/m 6,4 km/h (2 Bft) 91,49 %
25.09.2021 13:16 19,3 C 19,4 C 17,3 C 81 % 1017,2 hPa 0,0 l/m 0 min 0 min 176 W/m 3,2 km/h (1 Bft) 97,87 %
25.09.2021 13:18 19,3 C 18,9 C 17,3 C 81 % 1017,2 hPa 0,0 l/m 0 min 0 min 176 W/m 6,4 km/h (2 Bft) 97,83 %
25.09.2021 13:20 19,3 C 18,9 C 17,3 C 81 % 1017,2 hPa 0,0 l/m 0 min 0 min 178 W/m 3,2 km/h (1 Bft) 97,87 %
25.09.2021 13:22 19,3 C 19,4 C 17,3 C 81 % 1017,2 hPa 0,0 l/m 0 min 0 min 176 W/m 3,2 km/h (1 Bft) 95,74 %
25.09.2021 13:24 19,4 C 19,4 C 17,3 C 81 % 1017,1 hPa 0,0 l/m 0 min 0 min 174 W/m 6,4 km/h (2 Bft) 97,87 %
25.09.2021 13:26 19,4 C 19,4 C 17,3 C 81 % 1017,1 hPa 0,0 l/m 0 min 0 min 173 W/m 6,4 km/h (2 Bft) 97,87 %
25.09.2021 13:28 19,5 C 19,4 C 17,3 C 81 % 1017,1 hPa 0,0 l/m 0 min 0 min 176 W/m 3,2 km/h (1 Bft) 97,87 %
25.09.2021 13:30 19,5 C 19,4 C 17,3 C 81 % 1017,0 hPa 0,0 l/m 0 min 0 min 176 W/m 3,2 km/h (1 Bft) 97,83 %
25.09.2021 13:32 19,5 C 19,4 C 17,3 C 81 % 1017,0 hPa 0,0 l/m 0 min 0 min 174 W/m 3,2 km/h (1 Bft) 93,62 %
25.09.2021 13:34 19,6 C 19,4 C 17,3 C 81 % 1017,0 hPa 0,0 l/m 0 min 0 min 174 W/m 3,2 km/h (1 Bft) 97,87 %
25.09.2021 13:36 19,6 C 20,0 C 17,3 C 81 % 1017,0 hPa 0,0 l/m 0 min 0 min 172 W/m 3,2 km/h (1 Bft) 97,87 %
25.09.2021 13:38 19,6 C 20,0 C 17,3 C 81 % 1017,0 hPa 0,0 l/m 0 min 0 min 174 W/m 6,4 km/h (2 Bft) 97,87 %
25.09.2021 13:40 19,6 C 19,4 C 17,3 C 81 % 1017,0 hPa 0,0 l/m 0 min 0 min 178 W/m 6,4 km/h (2 Bft) 95,74 %
25.09.2021 13:42 19,6 C 19,4 C 17,3 C 81 % 1017,0 hPa 0,0 l/m 0 min 0 min 179 W/m 3,2 km/h (1 Bft) 95,65 %
25.09.2021 13:44 19,6 C 19,4 C 17,3 C 80 % 1016,9 hPa 0,0 l/m 0 min 0 min 179 W/m 0,0 km/h (0 Bft) 97,87 %
25.09.2021 13:46 19,7 C 20,0 C 17,3 C 80 % 1016,9 hPa 0,0 l/m 0 min 0 min 180 W/m 3,2 km/h (1 Bft) 97,87 %
25.09.2021 13:48 19,7 C 20,0 C 17,3 C 80 % 1016,9 hPa 0,0 l/m 0 min 0 min 181 W/m 3,2 km/h (1 Bft) 95,74 %
25.09.2021 13:50 19,8 C 20,0 C 17,8 C 80 % 1016,9 hPa 0,0 l/m 0 min 0 min 181 W/m 3,2 km/h (1 Bft) 97,87 %
25.09.2021 13:52 19,8 C 20,0 C 17,8 C 81 % 1016,8 hPa 0,0 l/m 0 min 0 min 184 W/m 3,2 km/h (1 Bft) 97,87 %
25.09.2021 13:54 19,9 C 20,0 C 17,8 C 81 % 1016,8 hPa 0,0 l/m 0 min 0 min 190 W/m 3,2 km/h (1 Bft) 97,83 %
25.09.2021 13:56 19,9 C 20,0 C 17,8 C 81 % 1016,8 hPa 0,0 l/m 0 min 0 min 192 W/m 6,4 km/h (2 Bft) 97,87 %
25.09.2021 13:58 19,9 C 20,0 C 17,8 C 81 % 1016,8 hPa 0,0 l/m 0 min 0 min 196 W/m 6,4 km/h (2 Bft) 97,87 %
25.09.2021 14:00 19,9 C 20,0 C 17,8 C 81 % 1016,8 hPa 0,0 l/m 0 min 0 min 203 W/m 6,4 km/h (2 Bft) 97,87 %
25.09.2021 14:02 19,9 C 20,0 C 17,8 C 81 % 1016,7 hPa 0,0 l/m 0 min 0 min 209 W/m 6,4 km/h (2 Bft) 97,87 %
25.09.2021 14:04 19,9 C 20,0 C 17,8 C 81 % 1016,7 hPa 0,0 l/m 0 min 0 min 215 W/m 3,2 km/h (1 Bft) 97,87 %
25.09.2021 14:06 19,9 C 20,0 C 17,8 C 81 % 1016,7 hPa 0,0 l/m 0 min 0 min 220 W/m 3,2 km/h (1 Bft) 97,83 %
25.09.2021 14:08 19,9 C 20,6 C 17,8 C 81 % 1016,6 hPa 0,0 l/m 0 min 0 min 230 W/m 6,4 km/h (2 Bft) 97,87 %
25.09.2021 14:10 19,9 C 20,6 C 17,8 C 81 % 1016,6 hPa 0,0 l/m 0 min 0 min 247 W/m 3,2 km/h (1 Bft) 97,87 %
25.09.2021 14:12 20,0 C 20,6 C 17,8 C 81 % 1016,6 hPa 0,0 l/m 0 min 0 min 259 W/m 3,2 km/h (1 Bft) 97,87 %
25.09.2021 14:14 20,0 C 21,1 C 17,8 C 81 % 1016,6 hPa 0,0 l/m 0 min 0 min 277 W/m 3,2 km/h (1 Bft) 97,87 %
25.09.2021 14:16 20,0 C 22,2 C 18,4 C 81 % 1016,6 hPa 0,0 l/m 2 min 0 min 354 W/m 3,2 km/h (1 Bft) 95,74 %
25.09.2021 14:18 20,1 C 25,0 C 18,4 C 81 % 1016,6 hPa 0,0 l/m 2 min 0 min 641 W/m 6,4 km/h (2 Bft) 95,65 %
25.09.2021 14:20 20,3 C 27,8 C 18,4 C 81 % 1016,6 hPa 0,0 l/m 2 min 0 min 603 W/m 3,2 km/h (1 Bft) 97,87 %
25.09.2021 14:22 20,5 C 28,9 C 18,9 C 80 % 1016,6 hPa 0,0 l/m 2 min 0 min 602 W/m 6,4 km/h (2 Bft) 97,87 %
25.09.2021 14:24 20,7 C 30,6 C 18,9 C 80 % 1016,5 hPa 0,0 l/m 2 min 0 min 772 W/m 6,4 km/h (2 Bft) 97,87 %
25.09.2021 14:26 21,0 C 30,0 C 18,9 C 79 % 1016,5 hPa 0,0 l/m 2 min 0 min 709 W/m 9,7 km/h (2 Bft) 95,74 %
25.09.2021 14:28 21,1 C 30,0 C 18,9 C 78 % 1016,3 hPa 0,0 l/m 2 min 0 min 673 W/m 3,2 km/h (1 Bft) 100,00 %
25.09.2021 14:30 21,4 C 29,4 C 18,9 C 77 % 1016,3 hPa 0,0 l/m 2 min 0 min 654 W/m 6,4 km/h (2 Bft) 100,00 %
25.09.2021 14:32 21,5 C 29,4 C 18,4 C 77 % 1016,3 hPa 0,0 l/m 2 min 0 min 643 W/m 9,7 km/h (2 Bft) 100,00 %
25.09.2021 14:34 21,7 C 29,4 C 18,4 C 76 % 1016,3 hPa 0,0 l/m 2 min 0 min 634 W/m 6,4 km/h (2 Bft) 97,87 %
25.09.2021 14:36 21,8 C 29,4 C 18,4 C 76 % 1016,3 hPa 0,0 l/m 2 min 0 min 629 W/m 6,4 km/h (2 Bft) 95,74 %
25.09.2021 14:38 21,9 C 29,4 C 18,4 C 75 % 1016,3 hPa 0,0 l/m 2 min 0 min 625 W/m 9,7 km/h (2 Bft) 97,87 %
25.09.2021 14:40 22,0 C 29,4 C 18,4 C 75 % 1016,2 hPa 0,0 l/m 2 min 0 min 620 W/m 9,7 km/h (2 Bft) 95,74 %
25.09.2021 14:42 22,0 C 28,3 C 18,4 C 75 % 1016,2 hPa 0,0 l/m 2 min 0 min 617 W/m 6,4 km/h (2 Bft) 97,83 %
25.09.2021 14:44 22,1 C 27,2 C 18,4 C 74 % 1016,2 hPa 0,0 l/m 2 min 0 min 616 W/m 3,2 km/h (1 Bft) 97,87 %
25.09.2021 14:46 22,2 C 25,6 C 18,4 C 74 % 1016,2 hPa 0,0 l/m 2 min 0 min 614 W/m 6,4 km/h (2 Bft) 97,87 %
25.09.2021 14:48 22,3 C 24,4 C 18,4 C 74 % 1016,2 hPa 0,0 l/m 2 min 0 min 612 W/m 3,2 km/h (1 Bft) 97,87 %
25.09.2021 14:50 22,4 C 23,9 C 18,4 C 73 % 1016,2 hPa 0,0 l/m 2 min 0 min 609 W/m 6,4 km/h (2 Bft) 97,87 %
25.09.2021 14:52 22,4 C 23,3 C 18,4 C 73 % 1016,2 hPa 0,0 l/m 2 min 0 min 607 W/m 6,4 km/h (2 Bft) 97,87 %
25.09.2021 14:54 22,4 C 23,3 C 18,4 C 73 % 1016,1 hPa 0,0 l/m 2 min 0 min 605 W/m 6,4 km/h (2 Bft) 97,83 %
25.09.2021 14:56 22,4 C 22,8 C 18,4 C 73 % 1016,2 hPa 0,0 l/m 2 min 0 min 602 W/m 6,4 km/h (2 Bft) 97,87 %
25.09.2021 14:58 22,4 C 22,8 C 18,9 C 73 % 1016,1 hPa 0,0 l/m 2 min 0 min 599 W/m 6,4 km/h (2 Bft) 97,87 %
25.09.2021 15:00 22,5 C 22,8 C 18,4 C 72 % 1016,2 hPa 0,0 l/m 2 min 0 min 598 W/m 9,7 km/h (2 Bft) 97,87 %
25.09.2021 15:02 22,5 C 22,8 C 18,4 C 72 % 1016,2 hPa 0,0 l/m 2 min 0 min 595 W/m 6,4 km/h (2 Bft) 97,87 %
25.09.2021 15:04 22,5 C 22,8 C 18,9 C 72 % 1016,2 hPa 0,0 l/m 2 min 0 min 591 W/m 6,4 km/h (2 Bft) 97,87 %
25.09.2021 15:06 22,6 C 22,8 C 18,9 C 72 % 1016,1 hPa 0,0 l/m 2 min 0 min 590 W/m 6,4 km/h (2 Bft) 100,00 %
25.09.2021 15:08 22,6 C 22,8 C 18,9 C 73 % 1016,1 hPa 0,0 l/m 2 min 0 min 586 W/m 9,7 km/h (2 Bft) 97,87 %
25.09.2021 15:10 22,7 C 22,8 C 18,9 C 72 % 1016,2 hPa 0,0 l/m 2 min 0 min 584 W/m 6,4 km/h (2 Bft) 97,87 %
25.09.2021 15:12 22,7 C 22,8 C 18,9 C 72 % 1016,1 hPa 0,0 l/m 2 min 0 min 582 W/m 3,2 km/h (1 Bft) 97,87 %
25.09.2021 15:14 22,8 C 22,8 C 18,9 C 72 % 1016,1 hPa 0,0 l/m 2 min 0 min 580 W/m 6,4 km/h (2 Bft) 100,00 %
25.09.2021 15:16 22,8 C 22,8 C 18,9 C 72 % 1016,1 hPa 0,0 l/m 2 min 0 min 579 W/m 9,7 km/h (2 Bft) 97,83 %
25.09.2021 15:18 22,9 C 22,8 C 18,9 C 72 % 1016,0 hPa 0,0 l/m 2 min 0 min 577 W/m 6,4 km/h (2 Bft) 100,00 %
25.09.2021 15:20 22,9 C 22,8 C 18,9 C 72 % 1016,1 hPa 0,0 l/m 2 min 0 min 572 W/m 6,4 km/h (2 Bft) 97,87 %
25.09.2021 15:22 22,9 C 23,3 C 18,9 C 71 % 1015,9 hPa 0,0 l/m 2 min 0 min 529 W/m 6,4 km/h (2 Bft) 97,87 %
25.09.2021 15:24 23,0 C 23,3 C 18,9 C 70 % 1015,9 hPa 0,0 l/m 2 min 0 min 456 W/m 6,4 km/h (2 Bft) 97,87 %
25.09.2021 15:26 23,0 C 22,8 C 18,9 C 69 % 1015,9 hPa 0,0 l/m 2 min 0 min 543 W/m 3,2 km/h (1 Bft) 97,87 %
25.09.2021 15:28 23,0 C 23,3 C 18,9 C 69 % 1015,9 hPa 0,0 l/m 2 min 0 min 559 W/m 3,2 km/h (1 Bft) 97,87 %
25.09.2021 15:30 23,1 C 22,8 C 18,9 C 69 % 1015,9 hPa 0,0 l/m 2 min 0 min 556 W/m 3,2 km/h (1 Bft) 97,83 %
25.09.2021 15:32 23,1 C 22,8 C 18,9 C 69 % 1015,9 hPa 0,0 l/m 2 min 0 min 546 W/m 6,4 km/h (2 Bft) 93,62 %
25.09.2021 15:34 23,2 C 22,8 C 18,9 C 69 % 1015,9 hPa 0,0 l/m 2 min 0 min 523 W/m 6,4 km/h (2 Bft) 97,87 %
25.09.2021 15:36 23,2 C 22,2 C 19,5 C 68 % 1015,9 hPa 0,0 l/m 2 min 0 min 520 W/m 6,4 km/h (2 Bft) 97,87 %
25.09.2021 15:38 23,3 C 22,8 C 18,9 C 68 % 1015,9 hPa 0,0 l/m 2 min 0 min 531 W/m 3,2 km/h (1 Bft) 97,87 %
25.09.2021 15:40 23,3 C 22,2 C 18,9 C 68 % 1015,8 hPa 0,0 l/m 2 min 0 min 539 W/m 6,4 km/h (2 Bft) 97,92 %
25.09.2021 15:42 23,3 C 22,2 C 18,9 C 68 % 1015,8 hPa 0,0 l/m 2 min 0 min 534 W/m 9,7 km/h (2 Bft) 97,87 %
25.09.2021 15:44 23,4 C 22,2 C 19,5 C 69 % 1015,8 hPa 0,0 l/m 2 min 0 min 525 W/m 9,7 km/h (2 Bft) 97,87 %
25.09.2021 15:46 23,4 C 22,8 C 19,5 C 69 % 1015,8 hPa 0,0 l/m 2 min 0 min 513 W/m 9,7 km/h (2 Bft) 97,87 %
25.09.2021 15:48 23,4 C 22,8 C 19,5 C 69 % 1015,8 hPa 0,0 l/m 2 min 0 min 492 W/m 9,7 km/h (2 Bft) 97,83 %
25.09.2021 15:50 23,3 C 22,8 C 19,5 C 69 % 1015,8 hPa 0,0 l/m 2 min 0 min 430 W/m 6,4 km/h (2 Bft) 95,74 %
25.09.2021 15:52 23,3 C 22,2 C 19,5 C 69 % 1015,7 hPa 0,0 l/m 2 min 0 min 384 W/m 3,2 km/h (1 Bft) 97,87 %
25.09.2021 15:54 23,3 C 22,2 C 19,5 C 69 % 1015,8 hPa 0,0 l/m 2 min 0 min 395 W/m 3,2 km/h (1 Bft) 97,87 %
25.09.2021 15:56 23,3 C 22,2 C 19,5 C 69 % 1015,7 hPa 0,0 l/m 2 min 0 min 445 W/m 6,4 km/h (2 Bft) 97,87 %
25.09.2021 15:58 23,4 C 22,2 C 19,5 C 69 % 1015,8 hPa 0,0 l/m 2 min 0 min 460 W/m 9,7 km/h (2 Bft) 97,87 %
25.09.2021 16:00 23,4 C 22,8 C 19,5 C 69 % 1015,7 hPa 0,0 l/m 2 min 0 min 477 W/m 6,4 km/h (2 Bft) 97,83 %
25.09.2021 16:02 23,5 C 23,3 C 19,5 C 70 % 1015,7 hPa 0,0 l/m 2 min 0 min 486 W/m 3,2 km/h (1 Bft) 97,87 %
25.09.2021 16:04 23,5 C 23,3 C 19,5 C 69 % 1015,7 hPa 0,0 l/m 2 min 0 min 476 W/m 6,4 km/h (2 Bft) 97,87 %
25.09.2021 16:06 23,4 C 23,3 C 19,5 C 69 % 1015,6 hPa 0,0 l/m 2 min 0 min 472 W/m 6,4 km/h (2 Bft) 95,74 %
25.09.2021 16:08 23,4 C 23,3 C 19,5 C 69 % 1015,6 hPa 0,0 l/m 2 min 0 min 480 W/m 3,2 km/h (1 Bft) 100,00 %
25.09.2021 16:10 23,5 C 23,9 C 19,5 C 69 % 1015,6 hPa 0,0 l/m 2 min 0 min 477 W/m 3,2 km/h (1 Bft) 100,00 %
25.09.2021 16:12 23,5 C 24,4 C 20,0 C 69 % 1015,6 hPa 0,0 l/m 2 min 0 min 470 W/m 6,4 km/h (2 Bft) 100,00 %
25.09.2021 16:14 23,5 C 25,0 C 20,0 C 70 % 1015,6 hPa 0,0 l/m 2 min 0 min 467 W/m 3,2 km/h (1 Bft) 100,00 %
25.09.2021 16:16 23,6 C 25,6 C 20,0 C 70 % 1015,5 hPa 0,0 l/m 2 min 0 min 462 W/m 6,4 km/h (2 Bft) 100,00 %
25.09.2021 16:18 23,6 C 26,7 C 20,0 C 70 % 1015,5 hPa 0,0 l/m 2 min 0 min 456 W/m 3,2 km/h (1 Bft) 100,00 %
25.09.2021 16:20 23,6 C 27,8 C 20,0 C 70 % 1015,5 hPa 0,0 l/m 2 min 0 min 450 W/m 6,4 km/h (2 Bft) 100,00 %
25.09.2021 16:22 23,7 C 27,8 C 20,0 C 70 % 1015,5 hPa 0,0 l/m 2 min 0 min 443 W/m 6,4 km/h (2 Bft) 100,00 %
25.09.2021 16:24 23,6 C 27,2 C 20,6 C 71 % 1015,4 hPa 0,0 l/m 2 min 0 min 435 W/m 9,7 km/h (2 Bft) 100,00 %
25.09.2021 16:26 23,6 C 27,2 C 20,6 C 70 % 1015,4 hPa 0,0 l/m 2 min 0 min 422 W/m 9,7 km/h (2 Bft) 100,00 %
25.09.2021 16:28 23,6 C 27,8 C 20,6 C 70 % 1015,5 hPa 0,0 l/m 2 min 0 min 416 W/m 9,7 km/h (2 Bft) 97,87 %
25.09.2021 16:30 23,5 C 28,3 C 20,0 C 70 % 1015,4 hPa 0,0 l/m 2 min 0 min 411 W/m 6,4 km/h (2 Bft) 100,00 %
25.09.2021 16:32 23,5 C 29,4 C 20,0 C 71 % 1015,3 hPa 0,0 l/m 2 min 0 min 414 W/m 6,4 km/h (2 Bft) 100,00 %
25.09.2021 16:34 23,4 C 30,0 C 20,0 C 70 % 1015,4 hPa 0,0 l/m 2 min 0 min 412 W/m 9,7 km/h (2 Bft) 100,00 %
25.09.2021 16:36 23,4 C 30,6 C 20,0 C 70 % 1015,3 hPa 0,0 l/m 2 min 0 min 411 W/m 6,4 km/h (2 Bft) 97,83 %
25.09.2021 16:38 23,5 C 30,6 C 20,0 C 70 % 1015,3 hPa 0,0 l/m 2 min 0 min 408 W/m 9,7 km/h (2 Bft) 97,87 %
25.09.2021 16:40 23,5 C 31,1 C 19,5 C 71 % 1015,3 hPa 0,0 l/m 2 min 0 min 404 W/m 6,4 km/h (2 Bft) 100,00 %
25.09.2021 16:42 23,5 C 31,1 C 19,5 C 70 % 1015,3 hPa 0,0 l/m 2 min 0 min 398 W/m 6,4 km/h (2 Bft) 95,74 %
25.09.2021 16:44 23,6 C 31,1 C 19,5 C 70 % 1015,2 hPa 0,0 l/m 2 min 0 min 393 W/m 3,2 km/h (1 Bft) 93,62 %
25.09.2021 16:46 23,6 C 31,1 C 19,5 C 70 % 1015,2 hPa 0,0 l/m 2 min 0 min 388 W/m 6,4 km/h (2 Bft) 95,74 %
25.09.2021 16:48 23,6 C 31,7 C 19,5 C 70 % 1015,2 hPa 0,0 l/m 2 min 0 min 385 W/m 12,9 km/h (3 Bft) 93,48 %
25.09.2021 16:50 23,6 C 31,7 C 19,5 C 70 % 1015,1 hPa 0,0 l/m 2 min 0 min 377 W/m 9,7 km/h (2 Bft) 95,74 %
25.09.2021 16:52 23,6 C 30,6 C 19,5 C 70 % 1015,1 hPa 0,0 l/m 2 min 0 min 372 W/m 12,9 km/h (3 Bft) 95,74 %
25.09.2021 16:54 23,6 C 31,1 C 19,5 C 69 % 1015,1 hPa 0,0 l/m 2 min 0 min 367 W/m 6,4 km/h (2 Bft) 93,62 %
25.09.2021 16:56 23,5 C 31,1 C 19,5 C 69 % 1015,1 hPa 0,0 l/m 2 min 0 min 362 W/m 3,2 km/h (1 Bft) 95,74 %
25.09.2021 16:58 23,5 C 31,1 C 18,9 C 70 % 1015,1 hPa 0,0 l/m 2 min 0 min 357 W/m 6,4 km/h (2 Bft) 95,74 %
25.09.2021 17:00 23,6 C 31,7 C 18,9 C 70 % 1015,1 hPa 0,0 l/m 2 min 0 min 352 W/m 6,4 km/h (2 Bft) 95,65 %
25.09.2021 17:02 23,6 C 31,7 C 18,9 C 70 % 1015,1 hPa 0,0 l/m 2 min 0 min 347 W/m 6,4 km/h (2 Bft) 93,62 %
25.09.2021 17:04 23,6 C 31,1 C 18,9 C 70 % 1015,1 hPa 0,0 l/m 2 min 0 min 343 W/m 9,7 km/h (2 Bft) 91,49 %
25.09.2021 17:06 23,7 C 31,1 C 18,9 C 70 % 1015,1 hPa 0,0 l/m 2 min 0 min 337 W/m 6,4 km/h (2 Bft) 95,74 %
25.09.2021 17:08 23,7 C 31,1 C 18,9 C 70 % 1015,1 hPa 0,0 l/m 2 min 0 min 332 W/m 3,2 km/h (1 Bft) 93,62 %
25.09.2021 17:10 23,7 C 31,1 C 18,9 C 70 % 1015,0 hPa 0,0 l/m 2 min 0 min 329 W/m 9,7 km/h (2 Bft) 95,65 %
25.09.2021 17:12 23,8 C 30,6 C 18,9 C 70 % 1015,0 hPa 0,0 l/m 2 min 0 min 321 W/m 9,7 km/h (2 Bft) 95,74 %
25.09.2021 17:14 23,7 C 30,6 C 18,9 C 70 % 1015,0 hPa 0,0 l/m 2 min 0 min 315 W/m 3,2 km/h (1 Bft) 95,74 %
25.09.2021 17:16 23,6 C 30,6 C 18,9 C 70 % 1015,0 hPa 0,0 l/m 2 min 0 min 309 W/m 6,4 km/h (2 Bft) 97,87 %
25.09.2021 17:18 23,6 C 30,6 C 18,9 C 70 % 1015,0 hPa 0,0 l/m 2 min 0 min 304 W/m 6,4 km/h (2 Bft) 97,87 %
25.09.2021 17:20 23,6 C 30,0 C 18,9 C 70 % 1015,0 hPa 0,0 l/m 2 min 0 min 297 W/m 6,4 km/h (2 Bft) 97,87 %
25.09.2021 17:22 23,6 C 29,4 C 18,9 C 70 % 1015,0 hPa 0,0 l/m 2 min 0 min 292 W/m 6,4 km/h (2 Bft) 97,87 %
25.09.2021 17:24 23,6 C 30,0 C 18,9 C 70 % 1015,0 hPa 0,0 l/m 2 min 0 min 284 W/m 6,4 km/h (2 Bft) 95,65 %
25.09.2021 17:26 23,5 C 30,0 C 18,9 C 70 % 1015,0 hPa 0,0 l/m 2 min 0 min 278 W/m 3,2 km/h (1 Bft) 97,87 %
25.09.2021 17:28 23,5 C 30,0 C 18,9 C 70 % 1015,0 hPa 0,0 l/m 2 min 0 min 270 W/m 6,4 km/h (2 Bft) 97,87 %
25.09.2021 17:30 23,5 C 29,4 C 18,9 C 70 % 1014,9 hPa 0,0 l/m 2 min 0 min 262 W/m 6,4 km/h (2 Bft) 97,87 %
25.09.2021 17:32 23,5 C 29,4 C 18,9 C 71 % 1015,0 hPa 0,0 l/m 2 min 0 min 254 W/m 6,4 km/h (2 Bft) 100,00 %
25.09.2021 17:34 23,5 C 28,9 C 18,9 C 70 % 1014,9 hPa 0,0 l/m 2 min 0 min 248 W/m 6,4 km/h (2 Bft) 97,87 %
25.09.2021 17:36 23,4 C 28,9 C 18,9 C 71 % 1015,0 hPa 0,0 l/m 2 min 0 min 239 W/m 6,4 km/h (2 Bft) 100,00 %
25.09.2021 17:38 23,4 C 28,3 C 18,9 C 70 % 1014,9 hPa 0,0 l/m 2 min 0 min 232 W/m 3,2 km/h (1 Bft) 100,00 %
25.09.2021 17:40 23,3 C 28,9 C 18,9 C 70 % 1015,0 hPa 0,0 l/m 2 min 0 min 222 W/m 3,2 km/h (1 Bft) 100,00 %
25.09.2021 17:42 23,3 C 28,3 C 18,9 C 71 % 1015,0 hPa 0,0 l/m 2 min 0 min 220 W/m 3,2 km/h (1 Bft) 100,00 %
25.09.2021 17:44 23,2 C 27,8 C 18,9 C 72 % 1015,0 hPa 0,0 l/m 2 min 0 min 215 W/m 6,4 km/h (2 Bft) 100,00 %
25.09.2021 17:46 23,2 C 26,7 C 18,4 C 72 % 1015,0 hPa 0,0 l/m 2 min 0 min 208 W/m 6,4 km/h (2 Bft) 100,00 %
25.09.2021 17:48 23,1 C 25,6 C 18,4 C 72 % 1015,0 hPa 0,0 l/m 2 min 0 min 202 W/m 3,2 km/h (1 Bft) 100,00 %
25.09.2021 17:50 23,2 C 24,4 C 18,4 C 72 % 1014,9 hPa 0,0 l/m 2 min 0 min 195 W/m 6,4 km/h (2 Bft) 100,00 %
25.09.2021 17:52 23,1 C 23,3 C 18,4 C 72 % 1014,9 hPa 0,0 l/m 2 min 0 min 188 W/m 6,4 km/h (2 Bft) 97,87 %
25.09.2021 17:54 23,1 C 22,8 C 18,4 C 72 % 1014,9 hPa 0,0 l/m 2 min 0 min 180 W/m 6,4 km/h (2 Bft) 100,00 %
25.09.2021 17:56 23,1 C 22,8 C 18,4 C 72 % 1014,9 hPa 0,0 l/m 2 min 0 min 174 W/m 6,4 km/h (2 Bft) 100,00 %
25.09.2021 17:58 23,0 C 22,2 C 18,4 C 72 % 1014,9 hPa 0,0 l/m 2 min 0 min 167 W/m 3,2 km/h (1 Bft) 100,00 %
25.09.2021 18:00 23,0 C 21,7 C 18,4 C 72 % 1014,9 hPa 0,0 l/m 2 min 0 min 108 W/m 6,4 km/h (2 Bft) 100,00 %
25.09.2021 18:02 22,9 C 21,7 C 18,4 C 72 % 1014,9 hPa 0,0 l/m 0 min 0 min 55 W/m 3,2 km/h (1 Bft) 100,00 %
25.09.2021 18:04 22,9 C 21,1 C 18,4 C 73 % 1014,9 hPa 0,0 l/m 0 min 0 min 85 W/m 6,4 km/h (2 Bft) 97,87 %
25.09.2021 18:06 22,8 C 21,1 C 18,4 C 73 % 1015,0 hPa 0,0 l/m 2 min 0 min 110 W/m 6,4 km/h (2 Bft) 97,14 %
25.09.2021 18:08 22,8 C 21,1 C 18,4 C 73 % 1014,9 hPa 0,0 l/m 0 min 0 min 58 W/m 9,7 km/h (2 Bft) 97,87 %
25.09.2021 18:10 22,8 C 21,7 C 18,4 C 73 % 1014,9 hPa 0,0 l/m 2 min 0 min 112 W/m 9,7 km/h (2 Bft) 97,87 %
25.09.2021 18:12 22,7 C 22,2 C 18,4 C 74 % 1014,9 hPa 0,0 l/m 2 min 0 min 122 W/m 6,4 km/h (2 Bft) 97,87 %
25.09.2021 18:14 22,6 C 22,2 C 17,8 C 74 % 1015,0 hPa 0,0 l/m 2 min 0 min 116 W/m 6,4 km/h (2 Bft) 97,83 %
25.09.2021 18:16 22,5 C 21,7 C 17,8 C 74 % 1014,9 hPa 0,0 l/m 2 min 0 min 110 W/m 3,2 km/h (1 Bft) 97,87 %
25.09.2021 18:18 22,5 C 21,7 C 17,8 C 74 % 1014,9 hPa 0,0 l/m 2 min 0 min 105 W/m 3,2 km/h (1 Bft) 97,87 %
25.09.2021 18:20 22,5 C 21,1 C 17,8 C 74 % 1014,9 hPa 0,0 l/m 2 min 0 min 98 W/m 3,2 km/h (1 Bft) 97,87 %
25.09.2021 18:22 22,4 C 21,7 C 17,8 C 75 % 1014,9 hPa 0,0 l/m 2 min 0 min 91 W/m 6,4 km/h (2 Bft) 97,87 %
25.09.2021 18:24 22,3 C 22,2 C 17,8 C 75 % 1014,9 hPa 0,0 l/m 2 min 0 min 88 W/m 6,4 km/h (2 Bft) 97,87 %
25.09.2021 18:26 22,3 C 22,2 C 17,8 C 75 % 1014,9 hPa 0,0 l/m 2 min 0 min 84 W/m 3,2 km/h (1 Bft) 95,65 %
25.09.2021 18:28 22,3 C 22,2 C 17,8 C 75 % 1014,9 hPa 0,0 l/m 2 min 0 min 78 W/m 6,4 km/h (2 Bft) 97,87 %
25.09.2021 18:30 22,3 C 21,7 C 17,8 C 75 % 1014,9 hPa 0,0 l/m 2 min 0 min 74 W/m 3,2 km/h (1 Bft) 95,74 %
25.09.2021 18:32 22,2 C 21,1 C 17,8 C 75 % 1014,9 hPa 0,0 l/m 0 min 0 min 61 W/m 3,2 km/h (1 Bft) 97,87 %
25.09.2021 18:34 22,1 C 21,1 C 17,3 C 75 % 1014,8 hPa 0,0 l/m 0 min 0 min 35 W/m 3,2 km/h (1 Bft) 95,74 %
25.09.2021 18:36 22,1 C 20,6 C 17,3 C 76 % 1014,9 hPa 0,0 l/m 0 min 0 min 30 W/m 3,2 km/h (1 Bft) 97,87 %
25.09.2021 18:38 22,1 C 20,6 C 17,3 C 75 % 1014,9 hPa 0,0 l/m 0 min 0 min 30 W/m 3,2 km/h (1 Bft) 97,83 %
25.09.2021 18:40 22,0 C 20,6 C 17,3 C 75 % 1014,9 hPa 0,0 l/m 0 min 0 min 28 W/m 3,2 km/h (1 Bft) 97,87 %
25.09.2021 18:42 21,9 C 20,0 C 17,3 C 75 % 1014,9 hPa 0,0 l/m 0 min 0 min 28 W/m 6,4 km/h (2 Bft) 97,87 %
25.09.2021 18:44 21,8 C 20,0 C 17,3 C 75 % 1014,9 hPa 0,0 l/m 0 min 0 min 26 W/m 3,2 km/h (1 Bft) 97,87 %
25.09.2021 18:46 21,8 C 20,0 C 17,3 C 75 % 1015,0 hPa 0,0 l/m 0 min 0 min 25 W/m 6,4 km/h (2 Bft) 97,87 %
25.09.2021 18:48 21,7 C 20,0 C 17,3 C 76 % 1014,9 hPa 0,0 l/m 0 min 0 min 25 W/m 3,2 km/h (1 Bft) 95,74 %
25.09.2021 18:50 21,6 C 20,0 C 17,3 C 76 % 1015,0 hPa 0,0 l/m 0 min 0 min 25 W/m 3,2 km/h (1 Bft) 100,00 %
25.09.2021 18:52 21,6 C 20,0 C 17,3 C 76 % 1014,9 hPa 0,0 l/m 0 min 0 min 23 W/m 3,2 km/h (1 Bft) 97,87 %
25.09.2021 18:54 21,5 C 19,4 C 17,3 C 76 % 1014,9 hPa 0,0 l/m 0 min 0 min 22 W/m 3,2 km/h (1 Bft) 97,87 %
25.09.2021 18:56 21,4 C 19,4 C 16,7 C 77 % 1014,9 hPa 0,0 l/m 0 min 0 min 21 W/m 3,2 km/h (1 Bft) 97,87 %
25.09.2021 18:58 21,3 C 19,4 C 16,7 C 77 % 1015,0 hPa 0,0 l/m 0 min 0 min 21 W/m 6,4 km/h (2 Bft) 95,74 %
25.09.2021 19:00 21,2 C 19,4 C 16,7 C 77 % 1015,0 hPa 0,0 l/m 0 min 0 min 19 W/m 3,2 km/h (1 Bft) 97,87 %
25.09.2021 19:02 21,1 C 19,4 C 16,7 C 77 % 1015,1 hPa 0,0 l/m 0 min 0 min 19 W/m 6,4 km/h (2 Bft) 97,83 %
25.09.2021 19:04 21,0 C 18,9 C 16,7 C 77 % 1015,1 hPa 0,0 l/m 0 min 0 min 18 W/m 3,2 km/h (1 Bft) 95,74 %
25.09.2021 19:06 21,0 C 18,9 C 16,7 C 78 % 1015,2 hPa 0,0 l/m 0 min 0 min 18 W/m 3,2 km/h (1 Bft) 97,87 %
25.09.2021 19:08 20,9 C 18,9 C 16,7 C 78 % 1015,2 hPa 0,0 l/m 0 min 0 min 17 W/m 3,2 km/h (1 Bft) 97,87 %
25.09.2021 19:10 20,8 C 18,9 C 16,7 C 78 % 1015,1 hPa 0,0 l/m 0 min 0 min 16 W/m 3,2 km/h (1 Bft) 97,87 %
25.09.2021 19:12 20,7 C 18,9 C 16,1 C 79 % 1015,2 hPa 0,0 l/m 0 min 0 min 15 W/m 3,2 km/h (1 Bft) 95,65 %
25.09.2021 19:14 20,6 C 18,9 C 16,1 C 79 % 1015,1 hPa 0,0 l/m 0 min 0 min 14 W/m 3,2 km/h (1 Bft) 97,87 %
25.09.2021 19:16 20,6 C 18,3 C 16,1 C 79 % 1015,1 hPa 0,0 l/m 0 min 0 min 12 W/m 3,2 km/h (1 Bft) 97,87 %
25.09.2021 19:18 20,5 C 18,3 C 16,1 C 79 % 1015,1 hPa 0,0 l/m 0 min 0 min 12 W/m 3,2 km/h (1 Bft) 96,43 %
25.09.2021 19:20 20,4 C 18,3 C 16,1 C 80 % 1015,1 hPa 0,0 l/m 0 min 0 min 11 W/m 3,2 km/h (1 Bft) 97,87 %
25.09.2021 19:22 20,3 C 18,3 C 16,1 C 80 % 1015,1 hPa 0,0 l/m 0 min 0 min 9 W/m 3,2 km/h (1 Bft) 97,87 %
25.09.2021 19:24 20,2 C 18,3 C 16,1 C 80 % 1015,1 hPa 0,0 l/m 0 min 0 min 8 W/m 0,0 km/h (0 Bft) 95,74 %
25.09.2021 19:26 20,1 C 18,3 C 16,1 C 80 % 1015,1 hPa 0,0 l/m 0 min 0 min 7 W/m 0,0 km/h (0 Bft) 97,83 %
25.09.2021 19:28 20,0 C 17,8 C 16,1 C 81 % 1015,1 hPa 0,0 l/m 0 min 0 min 7 W/m 0,0 km/h (0 Bft) 100,00 %
25.09.2021 19:30 20,0 C 17,8 C 15,6 C 81 % 1015,1 hPa 0,0 l/m 0 min 0 min 5 W/m 0,0 km/h (0 Bft) 100,00 %
25.09.2021 19:32 19,9 C 17,8 C 15,6 C 81 % 1015,1 hPa 0,0 l/m 0 min 0 min 5 W/m 3,2 km/h (1 Bft) 97,87 %
25.09.2021 19:34 19,9 C 17,8 C 15,6 C 81 % 1015,2 hPa 0,0 l/m 0 min 0 min 0 W/m 0,0 km/h (0 Bft) 100,00 %
25.09.2021 19:36 19,8 C 17,8 C 15,6 C 81 % 1015,1 hPa 0,0 l/m 0 min 0 min 0 W/m 0,0 km/h (0 Bft) 100,00 %
25.09.2021 19:38 19,7 C 17,2 C 15,6 C 82 % 1015,1 hPa 0,0 l/m 0 min 0 min 0 W/m 0,0 km/h (0 Bft) 100,00 %
25.09.2021 19:40 19,6 C 17,2 C 15,6 C 82 % 1015,1 hPa 0,0 l/m 0 min 0 min 0 W/m 0,0 km/h (0 Bft) 97,87 %
25.09.2021 19:42 19,5 C 17,2 C 15,6 C 82 % 1015,1 hPa 0,0 l/m 0 min 0 min 0 W/m 0,0 km/h (0 Bft) 97,87 %
25.09.2021 19:44 19,5 C 17,2 C 15,0 C 82 % 1015,1 hPa 0,0 l/m 0 min 0 min 0 W/m 0,0 km/h (0 Bft) 97,87 %
25.09.2021 19:46 19,4 C 17,2 C 15,0 C 82 % 1015,1 hPa 0,0 l/m 0 min 0 min 0 W/m 0,0 km/h (0 Bft) 97,87 %
25.09.2021 19:48 19,3 C 17,2 C 15,0 C 83 % 1015,1 hPa 0,0 l/m 0 min 0 min 0 W/m 0,0 km/h (0 Bft) 97,87 %
25.09.2021 19:50 19,3 C 16,7 C 15,0 C 83 % 1015,1 hPa 0,0 l/m 0 min 0 min 0 W/m 0,0 km/h (0 Bft) 95,65 %
25.09.2021 19:52 19,1 C 16,7 C 15,0 C 83 % 1015,1 hPa 0,0 l/m 0 min 0 min 0 W/m 0,0 km/h (0 Bft) 95,74 %
25.09.2021 19:54 19,1 C 16,7 C 15,0 C 83 % 1015,1 hPa 0,0 l/m 0 min 0 min 0 W/m 3,2 km/h (1 Bft) 97,87 %
25.09.2021 19:56 19,0 C 16,7 C 15,0 C 83 % 1015,0 hPa 0,0 l/m 0 min 0 min 0 W/m 3,2 km/h (1 Bft) 97,87 %
25.09.2021 19:58 18,9 C 16,7 C 15,0 C 84 % 1015,0 hPa 0,0 l/m 0 min 0 min 0 W/m 3,2 km/h (1 Bft) 97,87 %
25.09.2021 20:00 18,8 C 16,7 C 15,0 C 84 % 1015,1 hPa 0,0 l/m 0 min 0 min 0 W/m 6,4 km/h (2 Bft) 97,87 %
25.09.2021 20:02 18,6 C 16,7 C 15,0 C 84 % 1015,0 hPa 0,0 l/m 0 min 0 min 0 W/m 3,2 km/h (1 Bft) 97,87 %
25.09.2021 20:04 18,6 C 16,7 C 15,0 C 84 % 1015,0 hPa 0,0 l/m 0 min 0 min 0 W/m 3,2 km/h (1 Bft) 97,87 %
25.09.2021 20:06 18,5 C 16,7 C 15,0 C 85 % 1015,0 hPa 0,0 l/m 0 min 0 min 0 W/m 6,4 km/h (2 Bft) 97,87 %
25.09.2021 20:08 18,5 C 16,7 C 15,0 C 85 % 1015,1 hPa 0,0 l/m 0 min 0 min 0 W/m 3,2 km/h (1 Bft) 97,87 %
25.09.2021 20:10 18,5 C 16,7 C 15,0 C 85 % 1015,1 hPa 0,0 l/m 0 min 0 min 0 W/m 3,2 km/h (1 Bft) 97,87 %
25.09.2021 20:12 18,4 C 16,7 C 15,0 C 85 % 1015,1 hPa 0,0 l/m 0 min 0 min 0 W/m 0,0 km/h (0 Bft) 97,83 %
25.09.2021 20:14 18,4 C 16,7 C 15,0 C 85 % 1015,1 hPa 0,0 l/m 0 min 0 min 0 W/m 3,2 km/h (1 Bft) 97,87 %
25.09.2021 20:16 18,3 C 16,7 C 15,0 C 86 % 1015,0 hPa 0,0 l/m 0 min 0 min 0 W/m 3,2 km/h (1 Bft) 97,87 %
25.09.2021 20:18 18,3 C 16,7 C 15,0 C 86 % 1015,0 hPa 0,0 l/m 0 min 0 min 0 W/m 3,2 km/h (1 Bft) 97,87 %
25.09.2021 20:20 18,3 C 16,7 C 15,0 C 86 % 1015,0 hPa 0,0 l/m 0 min 0 min 0 W/m 3,2 km/h (1 Bft) 97,87 %
25.09.2021 20:22 18,2 C 16,7 C 15,0 C 86 % 1015,0 hPa 0,0 l/m 0 min 0 min 0 W/m 3,2 km/h (1 Bft) 95,74 %
25.09.2021 20:24 18,1 C 16,7 C 15,0 C 86 % 1015,1 hPa 0,0 l/m 0 min 0 min 0 W/m 3,2 km/h (1 Bft) 100,00 %
25.09.2021 20:26 18,1 C 16,7 C 15,0 C 86 % 1015,1 hPa 0,0 l/m 0 min 0 min 0 W/m 3,2 km/h (1 Bft) 100,00 %
25.09.2021 20:28 18,1 C 16,7 C 15,0 C 86 % 1015,1 hPa 0,0 l/m 0 min 0 min 0 W/m 3,2 km/h (1 Bft) 100,00 %
25.09.2021 20:30 18,0 C 16,7 C 14,5 C 86 % 1015,1 hPa 0,0 l/m 0 min 0 min 0 W/m 3,2 km/h (1 Bft) 97,87 %
25.09.2021 20:32 18,0 C 16,7 C 14,5 C 86 % 1015,1 hPa 0,0 l/m 0 min 0 min 0 W/m 3,2 km/h (1 Bft) 100,00 %
25.09.2021 20:34 18,0 C 16,7 C 14,5 C 86 % 1015,2 hPa 0,0 l/m 0 min 0 min 0 W/m 3,2 km/h (1 Bft) 100,00 %
25.09.2021 20:36 17,9 C 16,1 C 14,5 C 87 % 1015,1 hPa 0,0 l/m 0 min 0 min 0 W/m 3,2 km/h (1 Bft) 97,83 %
25.09.2021 20:38 17,9 C 16,1 C 14,5 C 87 % 1015,1 hPa 0,0 l/m 0 min 0 min 0 W/m 3,2 km/h (1 Bft) 100,00 %
25.09.2021 20:40 17,9 C 16,1 C 14,5 C 87 % 1015,1 hPa 0,0 l/m 0 min 0 min 0 W/m 3,2 km/h (1 Bft) 100,00 %
25.09.2021 20:42 17,8 C 16,1 C 14,5 C 87 % 1015,1 hPa 0,0 l/m 0 min 0 min 0 W/m 3,2 km/h (1 Bft) 100,00 %
25.09.2021 20:44 17,8 C 16,1 C 14,5 C 87 % 1015,1 hPa 0,0 l/m 0 min 0 min 0 W/m 3,2 km/h (1 Bft) 100,00 %
25.09.2021 20:46 17,8 C 16,1 C 14,5 C 87 % 1015,1 hPa 0,0 l/m 0 min 0 min 0 W/m 3,2 km/h (1 Bft) 100,00 %
25.09.2021 20:48 17,7 C 16,1 C 14,5 C 87 % 1015,1 hPa 0,0 l/m 0 min 0 min 0 W/m 3,2 km/h (1 Bft) 97,83 %
25.09.2021 20:50 17,6 C 16,1 C 14,5 C 87 % 1015,1 hPa 0,0 l/m 0 min 0 min 0 W/m 3,2 km/h (1 Bft) 95,74 %
25.09.2021 20:52 17,6 C 16,1 C 14,5 C 87 % 1015,1 hPa 0,0 l/m 0 min 0 min 0 W/m 3,2 km/h (1 Bft) 95,74 %
25.09.2021 20:54 17,6 C 16,1 C 14,5 C 87 % 1015,1 hPa 0,0 l/m 0 min 0 min 0 W/m 3,2 km/h (1 Bft) 95,74 %
25.09.2021 20:56 17,6 C 16,1 C 14,5 C 88 % 1015,1 hPa 0,0 l/m 0 min 0 min 0 W/m 3,2 km/h (1 Bft) 95,74 %
25.09.2021 20:58 17,5 C 16,1 C 14,5 C 88 % 1015,1 hPa 0,0 l/m 0 min 0 min 0 W/m 3,2 km/h (1 Bft) 93,62 %
25.09.2021 21:00 17,5 C 16,1 C 14,5 C 88 % 1015,1 hPa 0,0 l/m 0 min 0 min 0 W/m 3,2 km/h (1 Bft) 95,65 %
25.09.2021 21:02 17,5 C 16,1 C 14,5 C 88 % 1015,1 hPa 0,0 l/m 0 min 0 min 0 W/m 3,2 km/h (1 Bft) 93,62 %
25.09.2021 21:04 17,5 C 16,1 C 14,5 C 88 % 1015,1 hPa 0,0 l/m 0 min 0 min 0 W/m 3,2 km/h (1 Bft) 95,74 %
25.09.2021 21:06 17,4 C 16,1 C 14,5 C 88 % 1015,0 hPa 0,0 l/m 0 min 0 min 0 W/m 6,4 km/h (2 Bft) 95,74 %
25.09.2021 21:08 17,4 C 16,1 C 14,5 C 88 % 1015,0 hPa 0,0 l/m 0 min 0 min 0 W/m 3,2 km/h (1 Bft) 93,62 %
25.09.2021 21:10 17,4 C 16,1 C 14,5 C 88 % 1015,0 hPa 0,0 l/m 0 min 0 min 0 W/m 3,2 km/h (1 Bft) 95,74 %
25.09.2021 21:12 17,3 C 16,1 C 14,5 C 88 % 1015,1 hPa 0,0 l/m 0 min 0 min 0 W/m 3,2 km/h (1 Bft) 95,65 %
25.09.2021 21:14 17,3 C 15,6 C 14,5 C 89 % 1015,1 hPa 0,0 l/m 0 min 0 min 0 W/m 0,0 km/h (0 Bft) 95,74 %
25.09.2021 21:16 17,2 C 15,6 C 14,5 C 89 % 1015,1 hPa 0,0 l/m 0 min 0 min 0 W/m 0,0 km/h (0 Bft) 97,87 %
25.09.2021 21:18 17,1 C 15,6 C 14,5 C 89 % 1015,1 hPa 0,0 l/m 0 min 0 min 0 W/m 0,0 km/h (0 Bft) 93,62 %
25.09.2021 21:20 17,1 C 15,6 C 13,9 C 89 % 1015,2 hPa 0,0 l/m 0 min 0 min 0 W/m 0,0 km/h (0 Bft) 95,74 %
25.09.2021 21:22 17,1 C 15,6 C 13,9 C 89 % 1015,1 hPa 0,0 l/m 0 min 0 min 0 W/m 3,2 km/h (1 Bft) 95,74 %
25.09.2021 21:24 17,1 C 15,6 C 13,9 C 89 % 1015,1 hPa 0,0 l/m 0 min 0 min 0 W/m 3,2 km/h (1 Bft) 100,00 %
25.09.2021 21:26 17,0 C 15,6 C 13,9 C 89 % 1015,1 hPa 0,0 l/m 0 min 0 min 0 W/m 3,2 km/h (1 Bft) 95,74 %
25.09.2021 21:28 17,0 C 15,6 C 13,9 C 89 % 1015,2 hPa 0,0 l/m 0 min 0 min 0 W/m 3,2 km/h (1 Bft) 97,87 %
25.09.2021 21:30 17,0 C 15,6 C 13,9 C 89 % 1015,2 hPa 0,0 l/m 0 min 0 min 0 W/m 3,2 km/h (1 Bft) 97,87 %
25.09.2021 21:32 17,0 C 15,6 C 13,9 C 89 % 1015,2 hPa 0,0 l/m 0 min 0 min 0 W/m 3,2 km/h (1 Bft) 95,83 %
25.09.2021 21:34 16,9 C 15,6 C 13,9 C 89 % 1015,3 hPa 0,0 l/m 0 min 0 min 0 W/m 3,2 km/h (1 Bft) 97,83 %
25.09.2021 21:36 16,9 C 15,6 C 13,9 C 89 % 1015,2 hPa 0,0 l/m 0 min 0 min 0 W/m 3,2 km/h (1 Bft) 95,74 %
25.09.2021 21:38 16,9 C 15,6 C 13,9 C 89 % 1015,3 hPa 0,0 l/m 0 min 0 min 0 W/m 3,2 km/h (1 Bft) 97,87 %
25.09.2021 21:40 16,8 C 15,6 C 13,9 C 89 % 1015,3 hPa 0,0 l/m 0 min 0 min 0 W/m 0,0 km/h (0 Bft) 100,00 %
25.09.2021 21:42 16,8 C 15,0 C 13,9 C 90 % 1015,3 hPa 0,0 l/m 0 min 0 min 0 W/m 3,2 km/h (1 Bft) 100,00 %
25.09.2021 21:44 16,8 C 15,0 C 13,9 C 90 % 1015,2 hPa 0,0 l/m 0 min 0 min 0 W/m 3,2 km/h (1 Bft) 100,00 %
25.09.2021 21:46 16,7 C 15,0 C 13,9 C 90 % 1015,2 hPa 0,0 l/m 0 min 0 min 0 W/m 3,2 km/h (1 Bft) 100,00 %
25.09.2021 21:48 16,7 C 15,0 C 13,9 C 90 % 1015,2 hPa 0,0 l/m 0 min 0 min 0 W/m 3,2 km/h (1 Bft) 100,00 %
25.09.2021 21:50 16,6 C 15,0 C 13,9 C 90 % 1015,2 hPa 0,0 l/m 0 min 0 min 0 W/m 0,0 km/h (0 Bft) 97,87 %
25.09.2021 21:52 16,6 C 15,0 C 13,9 C 90 % 1015,1 hPa 0,0 l/m 0 min 0 min 0 W/m 0,0 km/h (0 Bft) 100,00 %
25.09.2021 21:54 16,6 C 15,0 C 13,9 C 90 % 1015,1 hPa 0,0 l/m 0 min 0 min 0 W/m 3,2 km/h (1 Bft) 100,00 %
25.09.2021 21:56 16,5 C 15,0 C 13,9 C 90 % 1015,2 hPa 0,0 l/m 0 min 0 min 0 W/m 3,2 km/h (1 Bft) 100,00 %
25.09.2021 21:58 16,5 C 15,0 C 13,4 C 90 % 1015,2 hPa 0,0 l/m 0 min 0 min 0 W/m 3,2 km/h (1 Bft) 100,00 %
25.09.2021 22:00 16,5 C 15,0 C 13,4 C 91 % 1015,2 hPa 0,0 l/m 0 min 0 min 0 W/m 0,0 km/h (0 Bft) 97,83 %
25.09.2021 22:02 16,4 C 15,0 C 13,4 C 91 % 1015,2 hPa 0,0 l/m 0 min 0 min 0 W/m 0,0 km/h (0 Bft) 100,00 %
25.09.2021 22:04 16,4 C 15,0 C 13,4 C 91 % 1015,2 hPa 0,0 l/m 0 min 0 min 0 W/m 0,0 km/h (0 Bft) 95,74 %
25.09.2021 22:06 16,4 C 15,0 C 13,4 C 91 % 1015,2 hPa 0,0 l/m 0 min 0 min 0 W/m 0,0 km/h (0 Bft) 97,87 %
25.09.2021 22:08 16,4 C 15,0 C 13,4 C 91 % 1015,2 hPa 0,0 l/m 0 min 0 min 0 W/m 0,0 km/h (0 Bft) 97,87 %
25.09.2021 22:10 16,3 C 14,4 C 13,4 C 91 % 1015,1 hPa 0,0 l/m 0 min 0 min 0 W/m 3,2 km/h (1 Bft) 97,83 %
25.09.2021 22:12 16,3 C 14,4 C 13,4 C 91 % 1015,2 hPa 0,0 l/m 0 min 0 min 0 W/m 0,0 km/h (0 Bft) 97,87 %
25.09.2021 22:14 16,3 C 14,4 C 13,4 C 91 % 1015,2 hPa 0,0 l/m 0 min 0 min 0 W/m 0,0 km/h (0 Bft) 97,87 %
25.09.2021 22:16 16,2 C 14,4 C 13,4 C 91 % 1015,2 hPa 0,0 l/m 0 min 0 min 0 W/m 0,0 km/h (0 Bft) 97,87 %
25.09.2021 22:18 16,2 C 14,4 C 13,4 C 91 % 1015,2 hPa 0,0 l/m 0 min 0 min 0 W/m 0,0 km/h (0 Bft) 97,87 %
25.09.2021 22:20 16,1 C 14,4 C 13,4 C 91 % 1015,2 hPa 0,0 l/m 0 min 0 min 0 W/m 0,0 km/h (0 Bft) 97,87 %
25.09.2021 22:22 16,1 C 14,4 C 13,4 C 91 % 1015,2 hPa 0,0 l/m 0 min 0 min 0 W/m 3,2 km/h (1 Bft) 97,83 %
25.09.2021 22:24 16,1 C 14,4 C 13,4 C 91 % 1015,1 hPa 0,0 l/m 0 min 0 min 0 W/m 3,2 km/h (1 Bft) 97,87 %
25.09.2021 22:26 16,0 C 14,4 C 13,4 C 91 % 1015,1 hPa 0,0 l/m 0 min 0 min 0 W/m 3,2 km/h (1 Bft) 97,87 %
25.09.2021 22:28 16,0 C 14,4 C 13,4 C 91 % 1015,1 hPa 0,0 l/m 0 min 0 min 0 W/m 3,2 km/h (1 Bft) 97,87 %
25.09.2021 22:30 16,0 C 14,4 C 13,4 C 91 % 1015,1 hPa 0,0 l/m 0 min 0 min 0 W/m 0,0 km/h (0 Bft) 97,87 %
25.09.2021 22:32 15,9 C 14,4 C 13,4 C 92 % 1015,1 hPa 0,0 l/m 0 min 0 min 0 W/m 0,0 km/h (0 Bft) 97,87 %
25.09.2021 22:34 15,9 C 14,4 C 13,4 C 92 % 1015,2 hPa 0,0 l/m 0 min 0 min 0 W/m 0,0 km/h (0 Bft) 95,65 %
25.09.2021 22:36 15,9 C 14,4 C 13,4 C 92 % 1015,2 hPa 0,0 l/m 0 min 0 min 0 W/m 0,0 km/h (0 Bft) 97,87 %
25.09.2021 22:38 15,9 C 14,4 C 13,4 C 92 % 1015,2 hPa 0,0 l/m 0 min 0 min 0 W/m 0,0 km/h (0 Bft) 97,87 %
25.09.2021 22:40 15,8 C 14,4 C 13,4 C 92 % 1015,2 hPa 0,0 l/m 0 min 0 min 0 W/m 0,0 km/h (0 Bft) 95,74 %
25.09.2021 22:42 15,8 C 14,4 C 13,4 C 92 % 1015,3 hPa 0,0 l/m 0 min 0 min 0 W/m 0,0 km/h (0 Bft) 95,74 %
25.09.2021 22:44 15,8 C 14,4 C 13,4 C 92 % 1015,2 hPa 0,0 l/m 0 min 0 min 0 W/m 0,0 km/h (0 Bft) 97,87 %
25.09.2021 22:46 15,8 C 14,4 C 13,4 C 92 % 1015,2 hPa 0,0 l/m 0 min 0 min 0 W/m 0,0 km/h (0 Bft) 97,83 %
25.09.2021 22:48 15,7 C 14,4 C 13,4 C 92 % 1015,2 hPa 0,0 l/m 0 min 0 min 0 W/m 0,0 km/h (0 Bft) 97,87 %
25.09.2021 22:50 15,7 C 14,4 C 13,4 C 92 % 1015,3 hPa 0,0 l/m 0 min 0 min 0 W/m 0,0 km/h (0 Bft) 95,74 %
25.09.2021 22:52 15,6 C 14,4 C 13,4 C 92 % 1015,2 hPa 0,0 l/m 0 min 0 min 0 W/m 0,0 km/h (0 Bft) 97,87 %
25.09.2021 22:54 15,6 C 13,9 C 13,4 C 92 % 1015,2 hPa 0,0 l/m 0 min 0 min 0 W/m 0,0 km/h (0 Bft) 97,87 %
25.09.2021 22:56 15,6 C 13,9 C 13,4 C 92 % 1015,2 hPa 0,0 l/m 0 min 0 min 0 W/m 0,0 km/h (0 Bft) 95,74 %
25.09.2021 22:58 15,6 C 13,9 C 12,8 C 92 % 1015,3 hPa 0,0 l/m 0 min 0 min 0 W/m 0,0 km/h (0 Bft) 97,83 %
25.09.2021 23:00 15,5 C 13,9 C 12,8 C 93 % 1015,2 hPa 0,0 l/m 0 min 0 min 0 W/m 0,0 km/h (0 Bft) 97,87 %
25.09.2021 23:02 15,5 C 13,9 C 12,8 C 93 % 1015,2 hPa 0,0 l/m 0 min 0 min 0 W/m 0,0 km/h (0 Bft) 97,87 %
25.09.2021 23:04 15,5 C 13,9 C 12,8 C 93 % 1015,2 hPa 0,0 l/m 0 min 0 min 0 W/m 0,0 km/h (0 Bft) 97,87 %
25.09.2021 23:06 15,5 C 13,9 C 12,8 C 93 % 1015,2 hPa 0,0 l/m 0 min 0 min 0 W/m 0,0 km/h (0 Bft) 97,87 %
25.09.2021 23:08 15,4 C 13,9 C 12,8 C 93 % 1015,2 hPa 0,0 l/m 0 min 0 min 0 W/m 3,2 km/h (1 Bft) 97,87 %
25.09.2021 23:10 15,4 C 13,9 C 12,8 C 93 % 1015,2 hPa 0,0 l/m 0 min 0 min 0 W/m 0,0 km/h (0 Bft) 100,00 %
25.09.2021 23:12 15,4 C 13,9 C 12,8 C 93 % 1015,2 hPa 0,0 l/m 0 min 0 min 0 W/m 0,0 km/h (0 Bft) 100,00 %
25.09.2021 23:14 15,3 C 13,9 C 12,8 C 93 % 1015,2 hPa 0,0 l/m 0 min 0 min 0 W/m 0,0 km/h (0 Bft) 100,00 %
25.09.2021 23:16 15,3 C 13,9 C 12,8 C 93 % 1015,2 hPa 0,0 l/m 0 min 0 min 0 W/m 0,0 km/h (0 Bft) 100,00 %
25.09.2021 23:18 15,3 C 13,9 C 12,8 C 93 % 1015,1 hPa 0,0 l/m 0 min 0 min 0 W/m 0,0 km/h (0 Bft) 100,00 %
25.09.2021 23:20 15,3 C 13,9 C 12,8 C 93 % 1015,2 hPa 0,0 l/m 0 min 0 min 0 W/m 0,0 km/h (0 Bft) 100,00 %
25.09.2021 23:22 15,2 C 13,9 C 12,8 C 93 % 1015,1 hPa 0,0 l/m 0 min 0 min 0 W/m 0,0 km/h (0 Bft) 100,00 %
25.09.2021 23:24 15,2 C 13,9 C 12,8 C 93 % 1015,1 hPa 0,0 l/m 0 min 0 min 0 W/m 0,0 km/h (0 Bft) 100,00 %
25.09.2021 23:26 15,2 C 13,9 C 12,8 C 93 % 1015,1 hPa 0,0 l/m 0 min 0 min 0 W/m 0,0 km/h (0 Bft) 100,00 %
25.09.2021 23:28 15,1 C 13,9 C 12,8 C 93 % 1015,1 hPa 0,0 l/m 0 min 0 min 0 W/m 0,0 km/h (0 Bft) 100,00 %
25.09.2021 23:30 15,1 C 13,9 C 12,8 C 93 % 1015,0 hPa 0,0 l/m 0 min 0 min 0 W/m 0,0 km/h (0 Bft) 97,87 %
25.09.2021 23:32 15,1 C 13,9 C 12,8 C 93 % 1015,1 hPa 0,0 l/m 0 min 0 min 0 W/m 0,0 km/h (0 Bft) 97,83 %
25.09.2021 23:34 15,1 C 13,9 C 12,8 C 93 % 1015,1 hPa 0,0 l/m 0 min 0 min 0 W/m 0,0 km/h (0 Bft) 100,00 %
25.09.2021 23:36 15,0 C 13,9 C 12,8 C 93 % 1015,0 hPa 0,0 l/m 0 min 0 min 0 W/m 0,0 km/h (0 Bft) 100,00 %
25.09.2021 23:38 15,0 C 13,9 C 12,8 C 93 % 1015,1 hPa 0,0 l/m 0 min 0 min 0 W/m 0,0 km/h (0 Bft) 97,87 %
25.09.2021 23:40 15,0 C 13,9 C 12,8 C 93 % 1015,1 hPa 0,0 l/m 0 min 0 min 0 W/m 0,0 km/h (0 Bft) 100,00 %
25.09.2021 23:42 15,0 C 13,9 C 12,8 C 93 % 1015,0 hPa 0,0 l/m 0 min 0 min 0 W/m 0,0 km/h (0 Bft) 100,00 %
25.09.2021 23:44 15,0 C 13,9 C 12,8 C 93 % 1015,0 hPa 0,0 l/m 0 min 0 min 0 W/m 3,2 km/h (1 Bft) 100,00 %
25.09.2021 23:46 15,0 C 13,9 C 12,8 C 93 % 1015,0 hPa 0,0 l/m 0 min 0 min 0 W/m 0,0 km/h (0 Bft) 100,00 %
25.09.2021 23:48 15,0 C 13,9 C 12,8 C 93 % 1015,0 hPa 0,0 l/m 0 min 0 min 0 W/m 0,0 km/h (0 Bft) 100,00 %
25.09.2021 23:50 14,9 C 13,9 C 12,8 C 94 % 1015,0 hPa 0,0 l/m 0 min 0 min 0 W/m 0,0 km/h (0 Bft) 100,00 %
25.09.2021 23:52 14,9 C 13,9 C 12,8 C 94 % 1015,0 hPa 0,0 l/m 0 min 0 min 0 W/m 0,0 km/h (0 Bft) 97,87 %
25.09.2021 23:54 14,9 C 13,9 C 12,8 C 94 % 1015,0 hPa 0,0 l/m 0 min 0 min 0 W/m 0,0 km/h (0 Bft) 100,00 %
25.09.2021 23:56 14,9 C 13,9 C 12,8 C 94 % 1015,0 hPa 0,0 l/m 0 min 0 min 0 W/m 0,0 km/h (0 Bft) 97,83 %
25.09.2021 23:58 14,9 C 13,9 C 12,8 C 94 % 1015,0 hPa 0,0 l/m 0 min 0 min 0 W/m 0,0 km/h (0 Bft) 97,87 %
_ Min-Zeit 04:16 04:12 04:08 15:36 18:34 - - - - 02:06 11:40
Minimum _ 13,5 C 12,2 C 11,7 C 68 % 1014,8 hPa - - - - 0,0 km/h (0 Bft) 85,11 %
_ Max-Zeit 17:12 16:48 16:24 04:32 11:24 00:00 14:16 00:00 14:24 11:30 00:22
Maximum _ 23,8 C 31,7 C 20,6 C 94 % 1017,6 hPa 0,0 l/m 2 min 0 min 772 W/m 25,7 km/h
S (4 Bft)
100,00 %
Durchschnitt _ 17,3 C 17,2 C 15,0 C 86 % 1016,1 hPa #0,0 l/m #4:10 h #0 min. 225 W/m 5,1 km/h (1 Bft) 97,67 %
© 2021 W. Hausmann